Observation data for Dell City 1N on 02/13/2018      Previous  Date  Next       Current Mesonet Observations  Soil Data  Daily Summary Page  Observations in Plain Language
KDC1 130601Z 18008KT 07/M06 A3014 RMK A01 T00671059  RH  040%=      5-min Rain = 0
KDC1 130602Z 18007KT 07/M06 A3014 RMK A01 T00671059  RH  040%=      5-min Rain = 0
KDC1 130603Z 18009KT 07/M06 A3014 RMK A01 T00661059  RH  040%=      5-min Rain = 0
KDC1 130604Z 18008KT 07/M06 A3014 RMK A01 T00661058  RH  041%=      5-min Rain = 0
KDC1 130605Z 18007KT 07/M06 A3014 RMK A01 T00661058  RH  041%=      5-min Rain = 0
KDC1 130606Z 17006KT 07/M06 A3014 RMK A01 T00661058  RH  041%=      5-min Rain = 0
KDC1 130607Z 18006KT 07/M06 A3014 RMK A01 T00651059  RH  041%=      5-min Rain = 0
KDC1 130608Z 17007KT 06/M06 A3014 RMK A01 T00641059  RH  041%=      5-min Rain = 0
KDC1 130609Z 16005KT 06/M06 A3014 RMK A01 T00641058  RH  041%=      5-min Rain = 0
KDC1 130610Z 14005KT 06/M06 A3015 RMK A01 T00621059  RH  042%=      5-min Rain = 0
KDC1 130611Z 13004KT 06/M06 A3015 RMK A01 T00601056  RH  043%=      5-min Rain = 0
KDC1 130612Z 14004KT 06/M05 A3015 RMK A01 T00551051  RH  046%=      5-min Rain = 0
KDC1 130613Z 16004KT 05/M05 A3015 RMK A01 T00521049  RH  048%=      5-min Rain = 0
KDC1 130614Z 17004KT 05/M05 A3015 RMK A01 T00511049  RH  049%=      5-min Rain = 0
KDC1 130615Z 17005KT 05/M05 A3014 RMK A01 T00491049  RH  049%=      5-min Rain = 0
KDC1 130616Z 18005KT 05/M05 A3014 RMK A01 T00481050  RH  049%=      5-min Rain = 0
KDC1 130617Z 18006KT 05/M05 A3014 RMK A01 T00481052  RH  048%=      5-min Rain = 0
KDC1 130618Z 19006KT 05/M05 A3014 RMK A01 T00501053  RH  047%=      5-min Rain = 0
KDC1 130619Z 19006KT 05/M05 A3014 RMK A01 T00511053  RH  047%=      5-min Rain = 0
KDC1 130620Z 19006KT 05/M05 A3014 RMK A01 T00521054  RH  046%=      5-min Rain = 0
KDC1 130621Z 19006KT 05/M05 A3014 RMK A01 T00531054  RH  046%=      5-min Rain = 0
KDC1 130622Z 19006KT 06/M06 A3014 RMK A01 T00551055  RH  045%=      5-min Rain = 0
KDC1 130623Z 18005KT 06/M06 A3015 RMK A01 T00561055  RH  045%=      5-min Rain = 0
KDC1 130624Z 18004KT 06/M06 A3015 RMK A01 T00571056  RH  044%=      5-min Rain = 0
KDC1 130625Z 17004KT 06/M06 A3015 RMK A01 T00571057  RH  044%=      5-min Rain = 0
KDC1 130626Z 17004KT 06/M06 A3015 RMK A01 T00571058  RH  043%=      5-min Rain = 0
KDC1 130627Z 17003KT 06/M06 A3015 RMK A01 T00561059  RH  044%=      5-min Rain = 0
KDC1 130628Z 17004KT 06/M06 A3014 RMK A01 T00551058  RH  044%=      5-min Rain = 0
KDC1 130629Z 18004KT 06/M06 A3014 RMK A01 T00561058  RH  044%=      5-min Rain = 0
KDC1 130630Z 18004KT 06/M06 A3015 RMK A01 T00561058  RH  044%=      5-min Rain = 0
KDC1 130631Z 17004KT 06/M06 A3015 RMK A01 T00561058  RH  044%=      5-min Rain = 0
KDC1 130632Z 18004KT 06/M06 A3015 RMK A01 T00561058  RH  044%=      5-min Rain = 0
KDC1 130633Z 17003KT 06/M06 A3015 RMK A01 T00571057  RH  044%=      5-min Rain = 0
KDC1 130634Z 17003KT 06/M06 A3015 RMK A01 T00571058  RH  043%=      5-min Rain = 0
KDC1 130635Z 18004KT 06/M06 A3015 RMK A01 T00571058  RH  043%=      5-min Rain = 0
KDC1 130636Z 17003KT 06/M06 A3015 RMK A01 T00571058  RH  043%=      5-min Rain = 0
KDC1 130637Z 18003KT 06/M06 A3015 RMK A01 T00571058  RH  043%=      5-min Rain = 0
KDC1 130638Z 18003KT 06/M06 A3015 RMK A01 T00571058  RH  043%=      5-min Rain = 0
KDC1 130639Z 18003KT 06/M06 A3015 RMK A01 T00571058  RH  043%=      5-min Rain = 0
KDC1 130640Z 18003KT 06/M06 A3015 RMK A01 T00571058  RH  043%=      5-min Rain = 0
KDC1 130641Z 18002KT 06/M06 A3015 RMK A01 T00571058  RH  044%=      5-min Rain = 0
KDC1 130642Z 18003KT 06/M06 A3015 RMK A01 T00561058  RH  044%=      5-min Rain = 0
KDC1 130643Z 17003KT 06/M06 A3015 RMK A01 T00561058  RH  044%=      5-min Rain = 0
KDC1 130644Z 18003KT 06/M06 A3015 RMK A01 T00561058  RH  044%=      5-min Rain = 0
KDC1 130645Z 19003KT 06/M06 A3015 RMK A01 T00561057  RH  044%=      5-min Rain = 0
KDC1 130646Z 21002KT 06/M06 A3015 RMK A01 T00551058  RH  044%=      5-min Rain = 0
KDC1 130647Z 23002KT 05/M06 A3015 RMK A01 T00541058  RH  044%=      5-min Rain = 0
KDC1 130648Z 24003KT 05/M06 A3015 RMK A01 T00481057  RH  047%=      5-min Rain = 0
KDC1 130649Z 26005KT 04/M06 A3015 RMK A01 T00381056  RH  050%=      5-min Rain = 0
KDC1 130650Z 26006KT 03/M06 A3015 RMK A01 T00301056  RH  053%=      5-min Rain = 0
KDC1 130651Z 26006KT 03/M05 A3015 RMK A01 T00271053  RH  056%=      5-min Rain = 0
KDC1 130652Z 26006KT 02/M05 A3015 RMK A01 T00241053  RH  057%=      5-min Rain = 0
KDC1 130653Z 25006KT 02/M05 A3015 RMK A01 T00231052  RH  058%=      5-min Rain = 0
KDC1 130654Z 24004KT 02/M05 A3015 RMK A01 T00231050  RH  059%=      5-min Rain = 0
KDC1 130655Z 23004KT 02/M05 A3015 RMK A01 T00241049  RH  059%=      5-min Rain = 0
KDC1 130656Z 23004KT 03/M05 A3015 RMK A01 T00271049  RH  057%=      5-min Rain = 0
KDC1 130657Z 22004KT 03/M05 A3015 RMK A01 T00301050  RH  056%=      5-min Rain = 0
KDC1 130658Z 22004KT 03/M05 A3015 RMK A01 T00321050  RH  055%=      5-min Rain = 0
KDC1 130659Z 22004KT 04/M05 A3015 RMK A01 T00351050  RH  054%=      5-min Rain = 0
KDC1 130700Z 23004KT 04/M05 A3015 RMK A01 T00361051  RH  053%=      5-min Rain = 0
KDC1 130701Z 23004KT 04/M05 A3015 RMK A01 T00371051  RH  053%=      5-min Rain = 0
KDC1 130702Z 23003KT 04/M05 A3015 RMK A01 T00371050  RH  053%=      5-min Rain = 0
KDC1 130703Z 23003KT 04/M05 A3015 RMK A01 T00361049  RH  054%=      5-min Rain = 0
KDC1 130704Z 23003KT 04/M05 A3015 RMK A01 T00351050  RH  054%=      5-min Rain = 0
KDC1 130705Z 24003KT 03/M05 A3015 RMK A01 T00341050  RH  054%=      5-min Rain = 0
KDC1 130706Z 26003KT 03/M05 A3015 RMK A01 T00331050  RH  055%=      5-min Rain = 0
KDC1 130707Z 28002KT 03/M05 A3015 RMK A01 T00321050  RH  055%=      5-min Rain = 0
KDC1 130708Z 28003KT 03/M05 A3016 RMK A01 T00291050  RH  056%=      5-min Rain = 0
KDC1 130709Z 27002KT 03/M05 A3015 RMK A01 T00281051  RH  056%=      5-min Rain = 0
KDC1 130710Z 26003KT 03/M05 A3015 RMK A01 T00271050  RH  057%=      5-min Rain = 0
KDC1 130711Z 26004KT 03/M05 A3015 RMK A01 T00271050  RH  057%=      5-min Rain = 0
KDC1 130712Z 26004KT 03/M05 A3015 RMK A01 T00261051  RH  057%=      5-min Rain = 0
KDC1 130713Z 25004KT 03/M05 A3015 RMK A01 T00251053  RH  056%=      5-min Rain = 0
KDC1 130714Z 23004KT 03/M05 A3015 RMK A01 T00251054  RH  056%=      5-min Rain = 0
KDC1 130715Z 23004KT 03/M06 A3015 RMK A01 T00261055  RH  055%=      5-min Rain = 0
KDC1 130716Z 23005KT 03/M06 A3015 RMK A01 T00281055  RH  054%=      5-min Rain = 0
KDC1 130717Z 24005KT 03/M06 A3015 RMK A01 T00281056  RH  054%=      5-min Rain = 0
KDC1 130718Z 24005KT 03/M06 A3015 RMK A01 T00291055  RH  054%=      5-min Rain = 0
KDC1 130719Z 24006KT 03/M05 A3015 RMK A01 T00281054  RH  055%=      5-min Rain = 0
KDC1 130720Z 24005KT 03/M05 A3015 RMK A01 T00281054  RH  055%=      5-min Rain = 0
KDC1 130721Z 23004KT 03/M05 A3015 RMK A01 T00281054  RH  055%=      5-min Rain = 0
KDC1 130722Z 23004KT 03/M05 A3015 RMK A01 T00281053  RH  055%=      5-min Rain = 0
KDC1 130723Z 23004KT 03/M05 A3015 RMK A01 T00271053  RH  056%=      5-min Rain = 0
KDC1 130724Z 24004KT 03/M05 A3015 RMK A01 T00251052  RH  057%=      5-min Rain = 0
KDC1 130725Z 25006KT 02/M05 A3015 RMK A01 T00241051  RH  057%=      5-min Rain = 0
KDC1 130726Z 24005KT 02/M05 A3015 RMK A01 T00231050  RH  058%=      5-min Rain = 0
KDC1 130727Z 24005KT 02/M05 A3015 RMK A01 T00221050  RH  059%=      5-min Rain = 0
KDC1 130728Z 23005KT 02/M05 A3015 RMK A01 T00211050  RH  059%=      5-min Rain = 0
KDC1 130729Z 23004KT 02/M05 A3015 RMK A01 T00221050  RH  059%=      5-min Rain = 0
KDC1 130730Z 24005KT 02/M05 A3015 RMK A01 T00231049  RH  059%=      5-min Rain = 0
KDC1 130731Z 24006KT 02/M05 A3015 RMK A01 T00231049  RH  059%=      5-min Rain = 0
KDC1 130732Z 24006KT 02/M05 A3015 RMK A01 T00231048  RH  059%=      5-min Rain = 0
KDC1 130733Z 24005KT 02/M05 A3016 RMK A01 T00221048  RH  060%=      5-min Rain = 0
KDC1 130734Z 23005KT 02/M05 A3015 RMK A01 T00211049  RH  060%=      5-min Rain = 0
KDC1 130735Z 23004KT 02/M05 A3015 RMK A01 T00211050  RH  059%=      5-min Rain = 0
KDC1 130736Z 22005KT 02/M05 A3015 RMK A01 T00221051  RH  059%=      5-min Rain = 0
KDC1 130737Z 22005KT 02/M05 A3015 RMK A01 T00221051  RH  059%=      5-min Rain = 0
KDC1 130738Z 23005KT 02/M05 A3015 RMK A01 T00231051  RH  058%=      5-min Rain = 0
KDC1 130739Z 23004KT 02/M05 A3016 RMK A01 T00241051  RH  058%=      5-min Rain = 0
KDC1 130740Z 24004KT 02/M05 A3016 RMK A01 T00231050  RH  059%=      5-min Rain = 0
KDC1 130741Z 24004KT 02/M05 A3016 RMK A01 T00221050  RH  059%=      5-min Rain = 0
KDC1 130742Z 25004KT 02/M05 A3016 RMK A01 T00211049  RH  060%=      5-min Rain = 0
KDC1 130743Z 26004KT 02/M05 A3016 RMK A01 T00191049  RH  061%=      5-min Rain = 0
KDC1 130744Z 26004KT 02/M05 A3016 RMK A01 T00171049  RH  061%=      5-min Rain = 0
KDC1 130745Z 25003KT 02/M05 A3016 RMK A01 T00151049  RH  062%=      5-min Rain = 0
KDC1 130746Z 24003KT 01/M05 A3016 RMK A01 T00141048  RH  063%=      5-min Rain = 0
KDC1 130747Z 25004KT 01/M05 A3016 RMK A01 T00141048  RH  063%=      5-min Rain = 0
KDC1 130748Z 25004KT 02/M05 A3016 RMK A01 T00151048  RH  063%=      5-min Rain = 0
KDC1 130749Z 26004KT 02/M05 A3016 RMK A01 T00151049  RH  063%=      5-min Rain = 0
KDC1 130750Z 26004KT 02/M05 A3016 RMK A01 T00161049  RH  062%=      5-min Rain = 0
KDC1 130751Z 26004KT 02/M05 A3016 RMK A01 T00161049  RH  062%=      5-min Rain = 0
KDC1 130752Z 27003KT 02/M05 A3015 RMK A01 T00161050  RH  061%=      5-min Rain = 0
KDC1 130753Z 29003KT 02/M05 A3016 RMK A01 T00151052  RH  061%=      5-min Rain = 0
KDC1 130754Z 30004KT 01/M05 A3016 RMK A01 T00131053  RH  061%=      5-min Rain = 0
KDC1 130755Z 30005KT 01/M05 A3016 RMK A01 T00111052  RH  063%=      5-min Rain = 0
KDC1 130756Z 29005KT 01/M05 A3016 RMK A01 T00091051  RH  064%=      5-min Rain = 0
KDC1 130757Z 29005KT 01/M05 A3016 RMK A01 T00071051  RH  065%=      5-min Rain = 0
KDC1 130758Z 29005KT 01/M05 A3016 RMK A01 T00061051  RH  066%=      5-min Rain = 0
KDC1 130759Z 29005KT 01/M05 A3016 RMK A01 T00051051  RH  066%=      5-min Rain = 0
KDC1 130800Z 28006KT 01/M05 A3016 RMK A01 T00061050  RH  066%=      5-min Rain = 0
KDC1 130801Z 28005KT 01/M05 A3016 RMK A01 T00081049  RH  066%=      5-min Rain = 0
KDC1 130802Z 28005KT 01/M05 A3016 RMK A01 T00081050  RH  065%=      5-min Rain = 0
KDC1 130803Z 28006KT 01/M05 A3016 RMK A01 T00081050  RH  065%=      5-min Rain = 0
KDC1 130804Z 28005KT 01/M05 A3016 RMK A01 T00081050  RH  065%=      5-min Rain = 0
KDC1 130805Z 28005KT 01/M05 A3016 RMK A01 T00081050  RH  065%=      5-min Rain = 0
KDC1 130806Z 28005KT 01/M05 A3016 RMK A01 T00081050  RH  065%=      5-min Rain = 0
KDC1 130807Z 28006KT 01/M05 A3016 RMK A01 T00081050  RH  065%=      5-min Rain = 0
KDC1 130808Z 28006KT 01/M05 A3016 RMK A01 T00071050  RH  066%=      5-min Rain = 0
KDC1 130809Z 28006KT 01/M05 A3016 RMK A01 T00071050  RH  066%=      5-min Rain = 0
KDC1 130810Z 28005KT 01/M05 A3016 RMK A01 T00061051  RH  066%=      5-min Rain = 0
KDC1 130811Z 28005KT 01/M05 A3016 RMK A01 T00051052  RH  065%=      5-min Rain = 0
KDC1 130812Z 28006KT 00/M05 A3016 RMK A01 T00041053  RH  066%=      5-min Rain = 0
KDC1 130813Z 28006KT 00/M05 A3016 RMK A01 T00031053  RH  066%=      5-min Rain = 0
KDC1 130814Z 28007KT 00/M05 A3016 RMK A01 T00021053  RH  066%=      5-min Rain = 0
KDC1 130815Z 28007KT 00/M05 A3016 RMK A01 T00021054  RH  066%=      5-min Rain = 0
KDC1 130816Z 28006KT 00/M06 A3016 RMK A01 T00011055  RH  066%=      5-min Rain = 0
KDC1 130817Z 29006KT 00/M06 A3016 RMK A01 T00011055  RH  066%=      5-min Rain = 0
KDC1 130818Z 29007KT 00/M06 A3016 RMK A01 T00011056  RH  066%=      5-min Rain = 0
KDC1 130819Z 28007KT 00/06 A3016 RMK A01 T00000-56  RH  066%=      5-min Rain = 0
KDC1 130820Z 28007KT 00/06 A3016 RMK A01 T00000-56  RH  066%=      5-min Rain = 0
KDC1 130821Z 28007KT 00/06 A3016 RMK A01 T00-00-56  RH  066%=      5-min Rain = 0
KDC1 130822Z 28007KT 00/06 A3016 RMK A01 T00-00-56  RH  066%=      5-min Rain = 0
KDC1 130823Z 28008KT 00/M06 A3016 RMK A01 T00011055  RH  066%=      5-min Rain = 0
KDC1 130824Z 28008KT 00/M06 A3016 RMK A01 T00031055  RH  065%=      5-min Rain = 0
KDC1 130825Z 29007KT 00/M06 A3016 RMK A01 T00041055  RH  065%=      5-min Rain = 0
KDC1 130826Z 28006KT 00/M06 A3015 RMK A01 T00041056  RH  064%=      5-min Rain = 0
KDC1 130827Z 28007KT 00/M06 A3015 RMK A01 T00041056  RH  064%=      5-min Rain = 0
KDC1 130828Z 29007KT 00/M06 A3015 RMK A01 T00031056  RH  065%=      5-min Rain = 0
KDC1 130829Z 29007KT 00/M06 A3015 RMK A01 T00021056  RH  065%=      5-min Rain = 0
KDC1 130830Z 29006KT 00/M06 A3015 RMK A01 T00011057  RH  065%=      5-min Rain = 0
KDC1 130831Z 29006KT 00/M06 A3015 RMK A01 T00011056  RH  066%=      5-min Rain = 0
KDC1 130832Z 29006KT 00/M06 A3015 RMK A01 T00011055  RH  066%=      5-min Rain = 0
KDC1 130833Z 29006KT 00/06 A3016 RMK A01 T00000-55  RH  066%=      5-min Rain = 0
KDC1 130834Z 29006KT 00/06 A3016 RMK A01 T00-00-55  RH  067%=      5-min Rain = 0
KDC1 130835Z 29006KT M00/M06 A3016 RMK A01 T10011055  RH  067%=      5-min Rain = 0
KDC1 130836Z 29006KT M00/M06 A3016 RMK A01 T10021056  RH  067%=      5-min Rain = 0
KDC1 130837Z 29006KT M00/M06 A3016 RMK A01 T10031057  RH  067%=      5-min Rain = 0
KDC1 130838Z 29005KT M00/M06 A3016 RMK A01 T10031057  RH  067%=      5-min Rain = 0
KDC1 130839Z 28005KT M00/M06 A3016 RMK A01 T10041058  RH  067%=      5-min Rain = 0
KDC1 130840Z 28005KT M00/M06 A3016 RMK A01 T10041057  RH  067%=      5-min Rain = 0
KDC1 130841Z 28005KT M00/M06 A3016 RMK A01 T10031058  RH  066%=      5-min Rain = 0
KDC1 130842Z 28005KT M00/M06 A3016 RMK A01 T10021058  RH  066%=      5-min Rain = 0
KDC1 130843Z 29006KT M00/M06 A3016 RMK A01 T10011059  RH  065%=      5-min Rain = 0
KDC1 130844Z 29005KT M00/M06 A3016 RMK A01 T10011059  RH  065%=      5-min Rain = 0
KDC1 130845Z 29006KT M00/M06 A3016 RMK A01 T10011060  RH  065%=      5-min Rain = 0
KDC1 130846Z 28005KT M00/M06 A3016 RMK A01 T10021061  RH  065%=      5-min Rain = 0
KDC1 130847Z 27005KT M00/M06 A3016 RMK A01 T10021062  RH  064%=      5-min Rain = 0
KDC1 130848Z 28004KT M00/M06 A3016 RMK A01 T10021063  RH  063%=      5-min Rain = 0
KDC1 130849Z 27004KT M00/M07 A3016 RMK A01 T10021065  RH  063%=      5-min Rain = 0
KDC1 130850Z 27004KT M00/M07 A3016 RMK A01 T10021066  RH  062%=      5-min Rain = 0
KDC1 130851Z 27004KT M00/M07 A3016 RMK A01 T10021068  RH  061%=      5-min Rain = 0
KDC1 130852Z 27004KT M00/M07 A3017 RMK A01 T10011068  RH  061%=      5-min Rain = 0
KDC1 130853Z 27004KT 00/07 A3017 RMK A01 T00000-68  RH  060%=      5-min Rain = 0
KDC1 130854Z 26004KT 00/M07 A3017 RMK A01 T00011068  RH  060%=      5-min Rain = 0
KDC1 130855Z 27004KT 00/M07 A3016 RMK A01 T00011067  RH  060%=      5-min Rain = 0
KDC1 130856Z 27004KT 00/M07 A3016 RMK A01 T00011067  RH  060%=      5-min Rain = 0
KDC1 130857Z 27003KT 00/07 A3016 RMK A01 T00-00-67  RH  061%=      5-min Rain = 0
KDC1 130858Z 28003KT M00/M07 A3016 RMK A01 T10021066  RH  062%=      5-min Rain = 0
KDC1 130859Z 28003KT M00/M07 A3016 RMK A01 T10031065  RH  063%=      5-min Rain = 0
KDC1 130900Z 27004KT M00/M06 A3016 RMK A01 T10041064  RH  064%=      5-min Rain = 0
KDC1 130901Z 27004KT M01/M06 A3016 RMK A01 T10051064  RH  065%=      5-min Rain = 0
KDC1 130902Z 27004KT M01/M06 A3016 RMK A01 T10061062  RH  066%=      5-min Rain = 0
KDC1 130903Z 27003KT M01/M06 A3017 RMK A01 T10071061  RH  067%=      5-min Rain = 0
KDC1 130904Z 27004KT M01/M06 A3017 RMK A01 T10071061  RH  067%=      5-min Rain = 0
KDC1 130905Z 28004KT M01/M06 A3017 RMK A01 T10071061  RH  067%=      5-min Rain = 0
KDC1 130906Z 28005KT M01/M06 A3016 RMK A01 T10071061  RH  066%=      5-min Rain = 0
KDC1 130907Z 28005KT M01/M06 A3017 RMK A01 T10071063  RH  066%=      5-min Rain = 0
KDC1 130908Z 28005KT M01/M07 A3017 RMK A01 T10091065  RH  066%=      5-min Rain = 0
KDC1 130909Z 28005KT M01/M06 A3016 RMK A01 T10101064  RH  067%=      5-min Rain = 0
KDC1 130910Z 29006KT M01/M06 A3017 RMK A01 T10111064  RH  068%=      5-min Rain = 0
KDC1 130911Z 28006KT M01/M06 A3017 RMK A01 T10121064  RH  068%=      5-min Rain = 0
KDC1 130912Z 28006KT M01/M06 A3017 RMK A01 T10121063  RH  068%=      5-min Rain = 0
KDC1 130913Z 29006KT M01/M06 A3017 RMK A01 T10121063  RH  069%=      5-min Rain = 0
KDC1 130914Z 29006KT M01/M06 A3017 RMK A01 T10131063  RH  069%=      5-min Rain = 0
KDC1 130915Z 29006KT M01/M06 A3017 RMK A01 T10121062  RH  069%=      5-min Rain = 0
KDC1 130916Z 29006KT M01/M06 A3017 RMK A01 T10121062  RH  069%=      5-min Rain = 0
KDC1 130917Z 29006KT M01/M06 A3017 RMK A01 T10121062  RH  069%=      5-min Rain = 0
KDC1 130918Z 29006KT M01/M06 A3017 RMK A01 T10111062  RH  069%=      5-min Rain = 0
KDC1 130919Z 28005KT M01/M06 A3017 RMK A01 T10111062  RH  068%=      5-min Rain = 0
KDC1 130920Z 28006KT M01/M06 A3017 RMK A01 T10111063  RH  068%=      5-min Rain = 0
KDC1 130921Z 28006KT M01/M06 A3017 RMK A01 T10111063  RH  068%=      5-min Rain = 0
KDC1 130922Z 28006KT M01/M06 A3017 RMK A01 T10111063  RH  068%=      5-min Rain = 0
KDC1 130923Z 28005KT M01/M06 A3017 RMK A01 T10111064  RH  067%=      5-min Rain = 0
KDC1 130924Z 27004KT M01/M07 A3017 RMK A01 T10111065  RH  067%=      5-min Rain = 0
KDC1 130925Z 28005KT M01/M07 A3017 RMK A01 T10101065  RH  066%=      5-min Rain = 0
KDC1 130926Z 27004KT M01/M07 A3017 RMK A01 T10101066  RH  066%=      5-min Rain = 0
KDC1 130927Z 26004KT M01/M07 A3017 RMK A01 T10091067  RH  065%=      5-min Rain = 0
KDC1 130928Z 27005KT M01/M07 A3017 RMK A01 T10081068  RH  064%=      5-min Rain = 0
KDC1 130929Z 27004KT M01/M07 A3017 RMK A01 T10061068  RH  063%=      5-min Rain = 0
KDC1 130930Z 28004KT M01/M07 A3017 RMK A01 T10051068  RH  062%=      5-min Rain = 0
KDC1 130931Z 28005KT M01/M07 A3017 RMK A01 T10051068  RH  062%=      5-min Rain = 0
KDC1 130932Z 29004KT M01/M07 A3017 RMK A01 T10051069  RH  062%=      5-min Rain = 0
KDC1 130933Z 29004KT M01/M07 A3017 RMK A01 T10061070  RH  062%=      5-min Rain = 0
KDC1 130934Z 30004KT M01/M07 A3017 RMK A01 T10071071  RH  062%=      5-min Rain = 0
KDC1 130935Z 30006KT M01/M07 A3017 RMK A01 T10091069  RH  064%=      5-min Rain = 0
KDC1 130936Z 30007KT M01/M07 A3017 RMK A01 T10111067  RH  066%=      5-min Rain = 0
KDC1 130937Z 30007KT M01/M07 A3017 RMK A01 T10121065  RH  067%=      5-min Rain = 0
KDC1 130938Z 30007KT M01/M07 A3017 RMK A01 T10131065  RH  068%=      5-min Rain = 0
KDC1 130939Z 30007KT M01/M07 A3017 RMK A01 T10121065  RH  067%=      5-min Rain = 0
KDC1 130940Z 30008KT M01/M06 A3017 RMK A01 T10111064  RH  067%=      5-min Rain = 0
KDC1 130941Z 29008KT M01/M06 A3017 RMK A01 T10091063  RH  067%=      5-min Rain = 0
KDC1 130942Z 29007KT M01/M06 A3017 RMK A01 T10081063  RH  066%=      5-min Rain = 0
KDC1 130943Z 29006KT M01/M06 A3017 RMK A01 T10081063  RH  066%=      5-min Rain = 0
KDC1 130944Z 29005KT M01/M06 A3017 RMK A01 T10081064  RH  066%=      5-min Rain = 0
KDC1 130945Z 28005KT M01/M06 A3017 RMK A01 T10081064  RH  065%=      5-min Rain = 0
KDC1 130946Z 28006KT M01/M06 A3017 RMK A01 T10081064  RH  065%=      5-min Rain = 0
KDC1 130947Z 29006KT M01/M06 A3017 RMK A01 T10071064  RH  065%=      5-min Rain = 0
KDC1 130948Z 29007KT M01/M06 A3017 RMK A01 T10071064  RH  065%=      5-min Rain = 0
KDC1 130949Z 29007KT M01/M06 A3017 RMK A01 T10071063  RH  066%=      5-min Rain = 0
KDC1 130950Z 29007KT M01/M06 A3017 RMK A01 T10061063  RH  065%=      5-min Rain = 0
KDC1 130951Z 29006KT M01/M06 A3017 RMK A01 T10061064  RH  065%=      5-min Rain = 0
KDC1 130952Z 29006KT M01/M06 A3017 RMK A01 T10061064  RH  065%=      5-min Rain = 0
KDC1 130953Z 30006KT M01/M06 A3017 RMK A01 T10051064  RH  064%=      5-min Rain = 0
KDC1 130954Z 30006KT M01/M06 A3017 RMK A01 T10051064  RH  064%=      5-min Rain = 0
KDC1 130955Z 30005KT M01/M06 A3017 RMK A01 T10051064  RH  064%=      5-min Rain = 0
KDC1 130956Z 29004KT M01/M06 A3017 RMK A01 T10051063  RH  064%=      5-min Rain = 0
KDC1 130957Z 29004KT M01/M06 A3017 RMK A01 T10051064  RH  065%=      5-min Rain = 0
KDC1 130958Z 29005KT M01/M06 A3018 RMK A01 T10051064  RH  065%=      5-min Rain = 0
KDC1 130959Z 29006KT M01/M06 A3018 RMK A01 T10061064  RH  065%=      5-min Rain = 0
KDC1 131000Z 29006KT M01/M06 A3018 RMK A01 T10061063  RH  065%=      5-min Rain = 0
KDC1 131001Z 28006KT M01/M06 A3018 RMK A01 T10061063  RH  065%=      5-min Rain = 0
KDC1 131002Z 28005KT M01/M06 A3018 RMK A01 T10071064  RH  065%=      5-min Rain = 0
KDC1 131003Z 28005KT M01/M06 A3017 RMK A01 T10071064  RH  065%=      5-min Rain = 0
KDC1 131004Z 28005KT M01/M06 A3017 RMK A01 T10071064  RH  065%=      5-min Rain = 0
KDC1 131005Z 28005KT M01/M06 A3017 RMK A01 T10071064  RH  065%=      5-min Rain = 0
KDC1 131006Z 28005KT M01/M06 A3017 RMK A01 T10071064  RH  065%=      5-min Rain = 0
KDC1 131007Z 28005KT M01/M07 A3018 RMK A01 T10071065  RH  065%=      5-min Rain = 0
KDC1 131008Z 28005KT M01/M07 A3018 RMK A01 T10071065  RH  065%=      5-min Rain = 0
KDC1 131009Z 28004KT M01/M07 A3018 RMK A01 T10071065  RH  065%=      5-min Rain = 0
KDC1 131010Z 28004KT M01/M07 A3018 RMK A01 T10071065  RH  065%=      5-min Rain = 0
KDC1 131011Z 28003KT M01/M07 A3018 RMK A01 T10071065  RH  065%=      5-min Rain = 0
KDC1 131012Z 29003KT M01/M07 A3017 RMK A01 T10071065  RH  065%=      5-min Rain = 0
KDC1 131013Z 29003KT M01/M07 A3017 RMK A01 T10071066  RH  065%=      5-min Rain = 0
KDC1 131014Z 29003KT M01/M07 A3017 RMK A01 T10081066  RH  065%=      5-min Rain = 0
KDC1 131015Z 29004KT M01/M07 A3017 RMK A01 T10081065  RH  065%=      5-min Rain = 0
KDC1 131016Z 29004KT M01/M06 A3017 RMK A01 T10081064  RH  066%=      5-min Rain = 0
KDC1 131017Z 29004KT M01/M06 A3017 RMK A01 T10081063  RH  066%=      5-min Rain = 0
KDC1 131018Z 28004KT M01/M06 A3017 RMK A01 T10081063  RH  066%=      5-min Rain = 0
KDC1 131019Z 28005KT M01/M06 A3017 RMK A01 T10071062  RH  066%=      5-min Rain = 0
KDC1 131020Z 28004KT M01/M06 A3017 RMK A01 T10071063  RH  066%=      5-min Rain = 0
KDC1 131021Z 28004KT M01/M06 A3017 RMK A01 T10071063  RH  066%=      5-min Rain = 0
KDC1 131022Z 29004KT M01/M06 A3017 RMK A01 T10071063  RH  066%=      5-min Rain = 0
KDC1 131023Z 28003KT M01/M06 A3017 RMK A01 T10071063  RH  066%=      5-min Rain = 0
KDC1 131024Z 28003KT M01/M06 A3018 RMK A01 T10061063  RH  065%=      5-min Rain = 0
KDC1 131025Z 28002KT M01/M06 A3018 RMK A01 T10061064  RH  065%=      5-min Rain = 0
KDC1 131026Z 29001KT M01/M07 A3018 RMK A01 T10061065  RH  064%=      5-min Rain = 0
KDC1 131027Z 29003KT M01/M07 A3018 RMK A01 T10061065  RH  064%=      5-min Rain = 0
KDC1 131028Z 30004KT M01/M07 A3018 RMK A01 T10051065  RH  064%=      5-min Rain = 0
KDC1 131029Z 30004KT M01/M06 A3018 RMK A01 T10051064  RH  064%=      5-min Rain = 0
KDC1 131030Z 30004KT M00/M06 A3017 RMK A01 T10041064  RH  064%=      5-min Rain = 0
KDC1 131031Z 29004KT M00/M07 A3018 RMK A01 T10031065  RH  063%=      5-min Rain = 0
KDC1 131032Z 29004KT M00/M07 A3018 RMK A01 T10031065  RH  063%=      5-min Rain = 0
KDC1 131033Z 29004KT M00/M07 A3018 RMK A01 T10041066  RH  063%=      5-min Rain = 0
KDC1 131034Z 28004KT M00/M07 A3018 RMK A01 T10041066  RH  063%=      5-min Rain = 0
KDC1 131035Z 28003KT M00/M07 A3018 RMK A01 T10041067  RH  062%=      5-min Rain = 0
KDC1 131036Z 29004KT M00/M07 A3018 RMK A01 T10031066  RH  062%=      5-min Rain = 0
KDC1 131037Z 29003KT M00/M07 A3018 RMK A01 T10031067  RH  062%=      5-min Rain = 0
KDC1 131038Z 29003KT M00/M07 A3018 RMK A01 T10031067  RH  062%=      5-min Rain = 0
KDC1 131039Z 29003KT M00/M07 A3018 RMK A01 T10031067  RH  062%=      5-min Rain = 0
KDC1 131040Z 29004KT M00/M07 A3018 RMK A01 T10031067  RH  062%=      5-min Rain = 0
KDC1 131041Z 28003KT M00/M07 A3018 RMK A01 T10021067  RH  062%=      5-min Rain = 0
KDC1 131042Z 29003KT M00/M07 A3018 RMK A01 T10021067  RH  061%=      5-min Rain = 0
KDC1 131043Z 29004KT M00/M07 A3018 RMK A01 T10031068  RH  062%=      5-min Rain = 0
KDC1 131044Z 30004KT M00/M07 A3018 RMK A01 T10021067  RH  062%=      5-min Rain = 0
KDC1 131045Z 29003KT M00/M07 A3018 RMK A01 T10031067  RH  062%=      5-min Rain = 0
KDC1 131046Z 29003KT M00/M07 A3018 RMK A01 T10031067  RH  062%=      5-min Rain = 0
KDC1 131047Z 29003KT M00/M07 A3018 RMK A01 T10031068  RH  061%=      5-min Rain = 0
KDC1 131048Z 28004KT M00/M07 A3018 RMK A01 T10031068  RH  061%=      5-min Rain = 0
KDC1 131049Z 28003KT M00/M07 A3018 RMK A01 T10031069  RH  061%=      5-min Rain = 0
KDC1 131050Z 28003KT M00/M07 A3018 RMK A01 T10031069  RH  061%=      5-min Rain = 0
KDC1 131051Z 28003KT M00/M07 A3018 RMK A01 T10031070  RH  061%=      5-min Rain = 0
KDC1 131052Z 29004KT M00/M07 A3018 RMK A01 T10021070  RH  060%=      5-min Rain = 0
KDC1 131053Z 28004KT M00/M07 A3018 RMK A01 T10031071  RH  060%=      5-min Rain = 0
KDC1 131054Z 28004KT M00/M07 A3018 RMK A01 T10021072  RH  060%=      5-min Rain = 0
KDC1 131055Z 28004KT M00/M07 A3018 RMK A01 T10021072  RH  059%=      5-min Rain = 0
KDC1 131056Z 28004KT M00/M07 A3018 RMK A01 T10021072  RH  059%=      5-min Rain = 0
KDC1 131057Z 28004KT M00/M07 A3018 RMK A01 T10021073  RH  059%=      5-min Rain = 0
KDC1 131058Z 28004KT M00/M07 A3018 RMK A01 T10021073  RH  059%=      5-min Rain = 0
KDC1 131059Z 28004KT M00/M07 A3018 RMK A01 T10031073  RH  059%=      5-min Rain = 0
KDC1 131100Z 28004KT M00/M07 A3018 RMK A01 T10031073  RH  059%=      5-min Rain = 0
KDC1 131101Z 28004KT M00/M07 A3018 RMK A01 T10031074  RH  059%=      5-min Rain = 0
KDC1 131102Z 28004KT M00/M07 A3019 RMK A01 T10031074  RH  059%=      5-min Rain = 0
KDC1 131103Z 29004KT M00/M07 A3019 RMK A01 T10041074  RH  059%=      5-min Rain = 0
KDC1 131104Z 29004KT M00/M07 A3018 RMK A01 T10041073  RH  060%=      5-min Rain = 0
KDC1 131105Z 30004KT M01/M07 A3018 RMK A01 T10051072  RH  060%=      5-min Rain = 0
KDC1 131106Z 31004KT M01/M07 A3018 RMK A01 T10051072  RH  061%=      5-min Rain = 0
KDC1 131107Z 31004KT M01/M07 A3018 RMK A01 T10061071  RH  061%=      5-min Rain = 0
KDC1 131108Z 31004KT M01/M07 A3018 RMK A01 T10071071  RH  062%=      5-min Rain = 0
KDC1 131109Z 31005KT M01/M07 A3018 RMK A01 T10081071  RH  062%=      5-min Rain = 0
KDC1 131110Z 31004KT M01/M07 A3018 RMK A01 T10091071  RH  063%=      5-min Rain = 0
KDC1 131111Z 31004KT M01/M07 A3018 RMK A01 T10101071  RH  064%=      5-min Rain = 0
KDC1 131112Z 31004KT M01/M07 A3018 RMK A01 T10111070  RH  064%=      5-min Rain = 0
KDC1 131113Z 32003KT M01/M07 A3018 RMK A01 T10111069  RH  065%=      5-min Rain = 0
KDC1 131114Z 32003KT M01/M07 A3018 RMK A01 T10121069  RH  065%=      5-min Rain = 0
KDC1 131115Z 32004KT M01/M07 A3018 RMK A01 T10121067  RH  066%=      5-min Rain = 0
KDC1 131116Z 33003KT M01/M07 A3018 RMK A01 T10131066  RH  067%=      5-min Rain = 0
KDC1 131117Z 33003KT M01/M07 A3018 RMK A01 T10131067  RH  067%=      5-min Rain = 0
KDC1 131118Z 33003KT M01/M07 A3018 RMK A01 T10121068  RH  066%=      5-min Rain = 0
KDC1 131119Z 33003KT M01/M07 A3018 RMK A01 T10121068  RH  065%=      5-min Rain = 0
KDC1 131120Z 34003KT M01/M07 A3018 RMK A01 T10121069  RH  065%=      5-min Rain = 0
KDC1 131121Z 33003KT M01/M07 A3018 RMK A01 T10121069  RH  065%=      5-min Rain = 0
KDC1 131122Z 33004KT M01/M07 A3018 RMK A01 T10121067  RH  066%=      5-min Rain = 0
KDC1 131123Z 33003KT M01/M07 A3018 RMK A01 T10121065  RH  067%=      5-min Rain = 0
KDC1 131124Z 33003KT M01/M07 A3018 RMK A01 T10111065  RH  067%=      5-min Rain = 0
KDC1 131125Z 33002KT M01/M06 A3019 RMK A01 T10111064  RH  067%=      5-min Rain = 0
KDC1 131126Z 33002KT M01/M06 A3019 RMK A01 T10111063  RH  068%=      5-min Rain = 0
KDC1 131127Z 33002KT M01/M06 A3019 RMK A01 T10111061  RH  069%=      5-min Rain = 0
KDC1 131128Z 33001KT M01/M06 A3019 RMK A01 T10111059  RH  070%=      5-min Rain = 0
KDC1 131129Z 32001KT M01/M06 A3018 RMK A01 T10121058  RH  071%=      5-min Rain = 0
KDC1 131130Z 31001KT M01/M06 A3018 RMK A01 T10121059  RH  071%=      5-min Rain = 0
KDC1 131131Z 31001KT M01/M06 A3018 RMK A01 T10111059  RH  070%=      5-min Rain = 0
KDC1 131132Z 31001KT M01/M06 A3018 RMK A01 T10111059  RH  070%=      5-min Rain = 0
KDC1 131133Z 31001KT M01/M06 A3018 RMK A01 T10111059  RH  070%=      5-min Rain = 0
KDC1 131134Z 30001KT M01/M06 A3018 RMK A01 T10111060  RH  069%=      5-min Rain = 0
KDC1 131135Z 29000KT M01/M06 A3018 RMK A01 T10111060  RH  069%=      5-min Rain = 0
KDC1 131136Z 28001KT M01/M06 A3018 RMK A01 T10111061  RH  069%=      5-min Rain = 0
KDC1 131137Z 26001KT M01/M06 A3019 RMK A01 T10101061  RH  068%=      5-min Rain = 0
KDC1 131138Z 26002KT M01/M06 A3019 RMK A01 T10101062  RH  068%=      5-min Rain = 0
KDC1 131139Z 26002KT M01/M06 A3019 RMK A01 T10101063  RH  067%=      5-min Rain = 0
KDC1 131140Z 24001KT M01/M06 A3019 RMK A01 T10101064  RH  067%=      5-min Rain = 0
KDC1 131141Z 23001KT M01/M06 A3019 RMK A01 T10091063  RH  067%=      5-min Rain = 0
KDC1 131142Z 24002KT M01/M06 A3019 RMK A01 T10091063  RH  067%=      5-min Rain = 0
KDC1 131143Z 24002KT M01/M07 A3019 RMK A01 T10091066  RH  065%=      5-min Rain = 0
KDC1 131144Z 24002KT M01/M07 A3019 RMK A01 T10091068  RH  064%=      5-min Rain = 0
KDC1 131145Z 25002KT M01/M07 A3019 RMK A01 T10091069  RH  064%=      5-min Rain = 0
KDC1 131146Z 25004KT M01/M07 A3019 RMK A01 T10081068  RH  064%=      5-min Rain = 0
KDC1 131147Z 25004KT M01/M07 A3019 RMK A01 T10091067  RH  065%=      5-min Rain = 0
KDC1 131148Z 25004KT M01/M07 A3019 RMK A01 T10101066  RH  066%=      5-min Rain = 0
KDC1 131149Z 25004KT M01/M07 A3019 RMK A01 T10111065  RH  067%=      5-min Rain = 0
KDC1 131150Z 25003KT M01/M06 A3019 RMK A01 T10121064  RH  068%=      5-min Rain = 0
KDC1 131151Z 24003KT M01/M06 A3019 RMK A01 T10121064  RH  068%=      5-min Rain = 0
KDC1 131152Z 24002KT M01/M07 A3019 RMK A01 T10121065  RH  067%=      5-min Rain = 0
KDC1 131153Z 25003KT M01/M07 A3019 RMK A01 T10121065  RH  067%=      5-min Rain = 0
KDC1 131154Z 25003KT M01/M07 A3019 RMK A01 T10121065  RH  067%=      5-min Rain = 0
KDC1 131155Z 24003KT M01/M06 A3019 RMK A01 T10121064  RH  068%=      5-min Rain = 0
KDC1 131156Z 25002KT M01/M06 A302 RMK A01 T10121064  RH  068%=      5-min Rain = 0
KDC1 131157Z 26002KT M01/M06 A302 RMK A01 T10121064  RH  067%=      5-min Rain = 0
KDC1 131158Z 26004KT M01/M06 A302 RMK A01 T10121063  RH  068%=      5-min Rain = 0
KDC1 131159Z 25004KT M01/M06 A302 RMK A01 T10121062  RH  068%=      5-min Rain = 0
KDC1 131200Z 25003KT M01/M06 A302 RMK A01 T10121063  RH  068%=      5-min Rain = 0
KDC1 131201Z 24004KT M01/M06 A302 RMK A01 T10121062  RH  069%=      5-min Rain = 0
KDC1 131202Z 24004KT M01/M06 A302 RMK A01 T10121063  RH  068%=      5-min Rain = 0
KDC1 131203Z 25003KT M01/M06 A3019 RMK A01 T10121063  RH  068%=      5-min Rain = 0
KDC1 131204Z 25003KT M01/M06 A3019 RMK A01 T10111064  RH  067%=      5-min Rain = 0
KDC1 131205Z 24004KT M01/M06 A302 RMK A01 T10101064  RH  067%=      5-min Rain = 0
KDC1 131206Z 24004KT M01/M07 A302 RMK A01 T10091065  RH  066%=      5-min Rain = 0
KDC1 131207Z 24003KT M01/M07 A302 RMK A01 T10091065  RH  066%=      5-min Rain = 0
KDC1 131208Z 24003KT M01/M07 A302 RMK A01 T10081065  RH  065%=      5-min Rain = 0
KDC1 131209Z 23003KT M01/M07 A302 RMK A01 T10081066  RH  065%=      5-min Rain = 0
KDC1 131210Z 23004KT M01/M07 A302 RMK A01 T10081066  RH  065%=      5-min Rain = 0
KDC1 131211Z 23003KT M01/M07 A302 RMK A01 T10081066  RH  065%=      5-min Rain = 0
KDC1 131212Z 24003KT M01/M07 A302 RMK A01 T10081066  RH  064%=      5-min Rain = 0
KDC1 131213Z 25004KT M01/M07 A302 RMK A01 T10081067  RH  064%=      5-min Rain = 0
KDC1 131214Z 25005KT M01/M07 A302 RMK A01 T10081068  RH  064%=      5-min Rain = 0
KDC1 131215Z 25005KT M01/M07 A302 RMK A01 T10101070  RH  064%=      5-min Rain = 0
KDC1 131216Z 25004KT M01/M07 A302 RMK A01 T10111070  RH  064%=      5-min Rain = 0
KDC1 131217Z 26004KT M01/M07 A302 RMK A01 T10111070  RH  064%=      5-min Rain = 0
KDC1 131218Z 26004KT M01/M07 A302 RMK A01 T10111071  RH  064%=      5-min Rain = 0
KDC1 131219Z 27004KT M01/M07 A302 RMK A01 T10121070  RH  064%=      5-min Rain = 0
KDC1 131220Z 27004KT M01/M07 A302 RMK A01 T10121069  RH  065%=      5-min Rain = 0
KDC1 131221Z 28004KT M01/M07 A302 RMK A01 T10121068  RH  066%=      5-min Rain = 0
KDC1 131222Z 28004KT M01/M07 A302 RMK A01 T10131067  RH  067%=      5-min Rain = 0
KDC1 131223Z 28005KT M02/M07 A302 RMK A01 T10151066  RH  069%=      5-min Rain = 0
KDC1 131224Z 27004KT M02/M07 A302 RMK A01 T10171065  RH  070%=      5-min Rain = 0
KDC1 131225Z 27004KT M02/M07 A302 RMK A01 T10191065  RH  071%=      5-min Rain = 0
KDC1 131226Z 28004KT M02/M07 A302 RMK A01 T10191065  RH  071%=      5-min Rain = 0
KDC1 131227Z 27005KT M02/M07 A302 RMK A01 T10171065  RH  070%=      5-min Rain = 0
KDC1 131228Z 27005KT M02/M07 A302 RMK A01 T10161066  RH  069%=      5-min Rain = 0
KDC1 131229Z 28004KT M02/M07 A302 RMK A01 T10151067  RH  068%=      5-min Rain = 0
KDC1 131230Z 29004KT M01/M07 A302 RMK A01 T10141067  RH  067%=      5-min Rain = 0
KDC1 131231Z 29005KT M01/M07 A302 RMK A01 T10141068  RH  067%=      5-min Rain = 0
KDC1 131232Z 28005KT M01/M07 A302 RMK A01 T10131068  RH  067%=      5-min Rain = 0
KDC1 131233Z 28005KT M01/M07 A302 RMK A01 T10141068  RH  066%=      5-min Rain = 0
KDC1 131234Z 28005KT M01/M07 A302 RMK A01 T10141069  RH  066%=      5-min Rain = 0
KDC1 131235Z 28004KT M02/M07 A302 RMK A01 T10151070  RH  066%=      5-min Rain = 0
KDC1 131236Z 28004KT M02/M07 A302 RMK A01 T10161070  RH  066%=      5-min Rain = 0
KDC1 131237Z 28005KT M02/M07 A302 RMK A01 T10171070  RH  067%=      5-min Rain = 0
KDC1 131238Z 28005KT M02/M07 A302 RMK A01 T10191069  RH  068%=      5-min Rain = 0
KDC1 131239Z 28004KT M02/M07 A3021 RMK A01 T10201069  RH  069%=      5-min Rain = 0
KDC1 131240Z 28004KT M02/M07 A3021 RMK A01 T10211069  RH  070%=      5-min Rain = 0
KDC1 131241Z 28004KT M02/M07 A3021 RMK A01 T10211069  RH  070%=      5-min Rain = 0
KDC1 131242Z 29005KT M02/M07 A3021 RMK A01 T10211070  RH  069%=      5-min Rain = 0
KDC1 131243Z 29005KT M02/M07 A3021 RMK A01 T10201070  RH  069%=      5-min Rain = 0
KDC1 131244Z 29006KT M02/M07 A3021 RMK A01 T10201070  RH  069%=      5-min Rain = 0
KDC1 131245Z 30006KT M02/M07 A3021 RMK A01 T10211069  RH  070%=      5-min Rain = 0
KDC1 131246Z 30006KT M02/M07 A3021 RMK A01 T10221069  RH  070%=      5-min Rain = 0
KDC1 131247Z 30006KT M02/M07 A3021 RMK A01 T10231069  RH  071%=      5-min Rain = 0
KDC1 131248Z 30005KT M02/M07 A3021 RMK A01 T10241068  RH  071%=      5-min Rain = 0
KDC1 131249Z 30006KT M03/M07 A3021 RMK A01 T10251068  RH  072%=      5-min Rain = 0
KDC1 131250Z 30007KT M03/M07 A3021 RMK A01 T10251067  RH  073%=      5-min Rain = 0
KDC1 131251Z 30006KT M03/M07 A3021 RMK A01 T10251068  RH  072%=      5-min Rain = 0
KDC1 131252Z 30006KT M03/M07 A3021 RMK A01 T10251069  RH  072%=      5-min Rain = 0
KDC1 131253Z 30007KT M02/M07 A3021 RMK A01 T10241070  RH  071%=      5-min Rain = 0
KDC1 131254Z 30007KT M02/M07 A3021 RMK A01 T10231071  RH  070%=      5-min Rain = 0
KDC1 131255Z 30007KT M02/M07 A3021 RMK A01 T10231072  RH  069%=      5-min Rain = 0
KDC1 131256Z 30007KT M02/M07 A3021 RMK A01 T10221073  RH  068%=      5-min Rain = 0
KDC1 131257Z 29006KT M02/M07 A3021 RMK A01 T10211073  RH  068%=      5-min Rain = 0
KDC1 131258Z 29006KT M02/M07 A3021 RMK A01 T10201074  RH  067%=      5-min Rain = 0
KDC1 131259Z 29005KT M02/M07 A3021 RMK A01 T10201074  RH  067%=      5-min Rain = 0
KDC1 131300Z 30004KT M02/M07 A3021 RMK A01 T10201074  RH  067%=      5-min Rain = 0
KDC1 131301Z 31003KT M02/M07 A3021 RMK A01 T10201074  RH  067%=      5-min Rain = 0
KDC1 131302Z 30004KT M02/M07 A3021 RMK A01 T10211074  RH  067%=      5-min Rain = 0
KDC1 131303Z 30004KT M02/M07 A3021 RMK A01 T10211073  RH  067%=      5-min Rain = 0
KDC1 131304Z 30004KT M02/M07 A3022 RMK A01 T10211073  RH  068%=      5-min Rain = 0
KDC1 131305Z 30004KT M02/M07 A3022 RMK A01 T10211072  RH  068%=      5-min Rain = 0
KDC1 131306Z 30005KT M02/M07 A3022 RMK A01 T10211072  RH  068%=      5-min Rain = 0
KDC1 131307Z 30004KT M02/M07 A3022 RMK A01 T10211073  RH  068%=      5-min Rain = 0
KDC1 131308Z 30003KT M02/M07 A3022 RMK A01 T10211074  RH  067%=      5-min Rain = 0
KDC1 131309Z 30004KT M02/M07 A3022 RMK A01 T10211073  RH  067%=      5-min Rain = 0
KDC1 131310Z 30003KT M02/M07 A3022 RMK A01 T10211074  RH  067%=      5-min Rain = 0
KDC1 131311Z 29004KT M02/M07 A3022 RMK A01 T10221074  RH  068%=      5-min Rain = 0
KDC1 131312Z 30004KT M02/M07 A3022 RMK A01 T10221074  RH  068%=      5-min Rain = 0
KDC1 131313Z 30004KT M02/M07 A3022 RMK A01 T10221074  RH  068%=      5-min Rain = 0
KDC1 131314Z 29004KT M02/M07 A3022 RMK A01 T10221074  RH  067%=      5-min Rain = 0
KDC1 131315Z 29004KT M02/M08 A3022 RMK A01 T10231075  RH  067%=      5-min Rain = 0
KDC1 131316Z 28004KT M02/M08 A3022 RMK A01 T10231075  RH  067%=      5-min Rain = 0
KDC1 131317Z 28004KT M02/M08 A3022 RMK A01 T10241076  RH  067%=      5-min Rain = 0
KDC1 131318Z 28004KT M02/M08 A3022 RMK A01 T10241077  RH  067%=      5-min Rain = 0
KDC1 131319Z 28005KT M02/M08 A3022 RMK A01 T10241078  RH  067%=      5-min Rain = 0
KDC1 131320Z 27005KT M03/M08 A3022 RMK A01 T10251080  RH  066%=      5-min Rain = 0
KDC1 131321Z 28005KT M02/M08 A3022 RMK A01 T10241081  RH  065%=      5-min Rain = 0
KDC1 131322Z 28004KT M02/M08 A3022 RMK A01 T10241081  RH  065%=      5-min Rain = 0
KDC1 131323Z 29004KT M02/M08 A3022 RMK A01 T10231081  RH  064%=      5-min Rain = 0
KDC1 131324Z 29004KT M02/M08 A3022 RMK A01 T10221081  RH  064%=      5-min Rain = 0
KDC1 131325Z 29004KT M02/M08 A3022 RMK A01 T10221081  RH  064%=      5-min Rain = 0
KDC1 131326Z 30004KT M02/M08 A3022 RMK A01 T10231081  RH  064%=      5-min Rain = 0
KDC1 131327Z 30004KT M02/M08 A3022 RMK A01 T10231081  RH  064%=      5-min Rain = 0
KDC1 131328Z 31004KT M02/M08 A3022 RMK A01 T10231082  RH  064%=      5-min Rain = 0
KDC1 131329Z 31004KT M02/M08 A3022 RMK A01 T10241082  RH  064%=      5-min Rain = 0
KDC1 131330Z 31005KT M03/M08 A3023 RMK A01 T10251082  RH  065%=      5-min Rain = 0
KDC1 131331Z 32005KT M03/M08 A3023 RMK A01 T10261080  RH  067%=      5-min Rain = 0
KDC1 131332Z 32005KT M03/M08 A3023 RMK A01 T10281077  RH  069%=      5-min Rain = 0
KDC1 131333Z 33005KT M03/M08 A3023 RMK A01 T10301075  RH  071%=      5-min Rain = 0
KDC1 131334Z 33005KT M03/M07 A3023 RMK A01 T10311073  RH  073%=      5-min Rain = 0
KDC1 131335Z 33004KT M03/M07 A3023 RMK A01 T10321071  RH  074%=      5-min Rain = 0
KDC1 131336Z 32004KT M03/M07 A3023 RMK A01 T10321070  RH  075%=      5-min Rain = 0
KDC1 131337Z 32004KT M03/M07 A3023 RMK A01 T10321069  RH  076%=      5-min Rain = 0
KDC1 131338Z 32004KT M03/M07 A3023 RMK A01 T10321068  RH  076%=      5-min Rain = 0
KDC1 131339Z 32004KT M03/M07 A3023 RMK A01 T10321068  RH  076%=      5-min Rain = 0
KDC1 131340Z 31004KT M03/M07 A3023 RMK A01 T10321068  RH  076%=      5-min Rain = 0
KDC1 131341Z 31004KT M03/M07 A3023 RMK A01 T10321069  RH  076%=      5-min Rain = 0
KDC1 131342Z 30004KT M03/M07 A3023 RMK A01 T10321071  RH  075%=      5-min Rain = 0
KDC1 131343Z 31004KT M03/M07 A3023 RMK A01 T10331073  RH  074%=      5-min Rain = 0
KDC1 131344Z 31003KT M03/M07 A3023 RMK A01 T10331073  RH  074%=      5-min Rain = 0
KDC1 131345Z 32003KT M03/M07 A3023 RMK A01 T10331073  RH  074%=      5-min Rain = 0
KDC1 131346Z 33002KT M03/M07 A3023 RMK A01 T10321073  RH  073%=      5-min Rain = 0
KDC1 131347Z 33002KT M03/M07 A3023 RMK A01 T10311074  RH  072%=      5-min Rain = 0
KDC1 131348Z 32001KT M03/M08 A3023 RMK A01 T10291075  RH  071%=      5-min Rain = 0
KDC1 131349Z 31001KT M03/M08 A3023 RMK A01 T10271075  RH  070%=      5-min Rain = 0
KDC1 131350Z 31001KT M03/M08 A3023 RMK A01 T10251075  RH  068%=      5-min Rain = 0
KDC1 131351Z 30001KT M02/M08 A3023 RMK A01 T10231076  RH  067%=      5-min Rain = 0
KDC1 131352Z 30001KT M02/M08 A3023 RMK A01 T10221077  RH  066%=      5-min Rain = 0
KDC1 131353Z 30002KT M02/M08 A3023 RMK A01 T10221078  RH  065%=      5-min Rain = 0
KDC1 131354Z 29002KT M02/M08 A3023 RMK A01 T10221080  RH  065%=      5-min Rain = 0
KDC1 131355Z 28003KT M02/M08 A3024 RMK A01 T10241081  RH  065%=      5-min Rain = 0
KDC1 131356Z 29003KT M03/M08 A3024 RMK A01 T10251081  RH  065%=      5-min Rain = 0
KDC1 131357Z 29002KT M03/M08 A3024 RMK A01 T10261080  RH  066%=      5-min Rain = 0
KDC1 131358Z 28004KT M03/M08 A3024 RMK A01 T10261079  RH  067%=      5-min Rain = 0
KDC1 131359Z 29004KT M03/M08 A3024 RMK A01 T10261079  RH  067%=      5-min Rain = 0
KDC1 131400Z 29004KT M03/M08 A3024 RMK A01 T10271078  RH  068%=      5-min Rain = 0
KDC1 131401Z 29005KT M03/M08 A3024 RMK A01 T10271077  RH  068%=      5-min Rain = 0
KDC1 131402Z 29006KT M03/M08 A3025 RMK A01 T10281078  RH  068%=      5-min Rain = 0
KDC1 131403Z 29006KT M03/M08 A3025 RMK A01 T10291078  RH  069%=      5-min Rain = 0
KDC1 131404Z 30006KT M03/M08 A3025 RMK A01 T10301078  RH  070%=      5-min Rain = 0
KDC1 131405Z 30006KT M03/M08 A3025 RMK A01 T10321077  RH  071%=      5-min Rain = 0
KDC1 131406Z 29005KT M03/M08 A3025 RMK A01 T10321077  RH  071%=      5-min Rain = 0
KDC1 131407Z 29004KT M03/M08 A3025 RMK A01 T10321077  RH  071%=      5-min Rain = 0
KDC1 131408Z 29004KT M03/M08 A3025 RMK A01 T10321078  RH  071%=      5-min Rain = 0
KDC1 131409Z 29004KT M03/M08 A3025 RMK A01 T10321077  RH  071%=      5-min Rain = 0
KDC1 131410Z 29004KT M03/M08 A3025 RMK A01 T10321077  RH  071%=      5-min Rain = 0
KDC1 131411Z 29004KT M03/M08 A3025 RMK A01 T10311077  RH  071%=      5-min Rain = 0
KDC1 131412Z 29004KT M03/M08 A3025 RMK A01 T10301077  RH  070%=      5-min Rain = 0
KDC1 131413Z 28004KT M03/M08 A3025 RMK A01 T10291077  RH  070%=      5-min Rain = 0
KDC1 131414Z 28004KT M03/M08 A3025 RMK A01 T10291077  RH  069%=      5-min Rain = 0
KDC1 131415Z 28003KT M03/M08 A3025 RMK A01 T10281077  RH  069%=      5-min Rain = 0
KDC1 131416Z 29003KT M03/M08 A3025 RMK A01 T10271077  RH  069%=      5-min Rain = 0
KDC1 131417Z 30003KT M03/M08 A3025 RMK A01 T10271077  RH  068%=      5-min Rain = 0
KDC1 131418Z 31002KT M03/M08 A3025 RMK A01 T10261076  RH  068%=      5-min Rain = 0
KDC1 131419Z 31002KT M03/M08 A3025 RMK A01 T10251076  RH  068%=      5-min Rain = 0
KDC1 131420Z 31002KT M03/M08 A3025 RMK A01 T10251075  RH  069%=      5-min Rain = 0
KDC1 131421Z 31001KT M02/M07 A3025 RMK A01 T10241074  RH  069%=      5-min Rain = 0
KDC1 131422Z 30002KT M02/M07 A3025 RMK A01 T10241073  RH  069%=      5-min Rain = 0
KDC1 131423Z 29002KT M02/M07 A3025 RMK A01 T10241072  RH  069%=      5-min Rain = 0
KDC1 131424Z 29003KT M02/M07 A3025 RMK A01 T10241072  RH  069%=      5-min Rain = 0
KDC1 131425Z 30002KT M02/M07 A3025 RMK A01 T10231072  RH  069%=      5-min Rain = 0
KDC1 131426Z 31002KT M02/M07 A3026 RMK A01 T10221072  RH  069%=      5-min Rain = 0
KDC1 131427Z 30002KT M02/M07 A3026 RMK A01 T10221073  RH  068%=      5-min Rain = 0
KDC1 131428Z 30002KT M02/M07 A3026 RMK A01 T10221072  RH  068%=      5-min Rain = 0
KDC1 131429Z 30002KT M02/M07 A3026 RMK A01 T10211072  RH  068%=      5-min Rain = 0
KDC1 131430Z 30003KT M02/M07 A3026 RMK A01 T10211071  RH  069%=      5-min Rain = 0
KDC1 131431Z 30004KT M02/M07 A3026 RMK A01 T10211070  RH  069%=      5-min Rain = 0
KDC1 131432Z 31004KT M02/M07 A3026 RMK A01 T10211069  RH  070%=      5-min Rain = 0
KDC1 131433Z 31004KT M02/M07 A3026 RMK A01 T10211067  RH  071%=      5-min Rain = 0
KDC1 131434Z 31004KT M02/M07 A3026 RMK A01 T10201065  RH  071%=      5-min Rain = 0
KDC1 131435Z 32004KT M02/M06 A3026 RMK A01 T10191063  RH  072%=      5-min Rain = 0
KDC1 131436Z 32004KT M02/M06 A3026 RMK A01 T10181062  RH  072%=      5-min Rain = 0
KDC1 131437Z 32004KT M02/M06 A3026 RMK A01 T10171061  RH  072%=      5-min Rain = 0
KDC1 131438Z 32004KT M02/M06 A3026 RMK A01 T10161061  RH  071%=      5-min Rain = 0
KDC1 131439Z 31004KT M02/M06 A3026 RMK A01 T10151062  RH  070%=      5-min Rain = 0
KDC1 131440Z 31004KT M01/M06 A3027 RMK A01 T10141064  RH  069%=      5-min Rain = 0
KDC1 131441Z 31003KT M01/M06 A3027 RMK A01 T10131064  RH  068%=      5-min Rain = 0
KDC1 131442Z 31003KT M01/M06 A3027 RMK A01 T10121063  RH  068%=      5-min Rain = 0
KDC1 131443Z 30003KT M01/M06 A3027 RMK A01 T10111062  RH  069%=      5-min Rain = 0
KDC1 131444Z 32003KT M01/M06 A3027 RMK A01 T10111061  RH  069%=      5-min Rain = 0
KDC1 131445Z 32003KT M01/M06 A3026 RMK A01 T10101060  RH  069%=      5-min Rain = 0
KDC1 131446Z 31003KT M01/M06 A3027 RMK A01 T10101059  RH  069%=      5-min Rain = 0
KDC1 131447Z 30003KT M01/M06 A3027 RMK A01 T10091058  RH  069%=      5-min Rain = 0
KDC1 131448Z 31003KT M01/M06 A3027 RMK A01 T10081056  RH  070%=      5-min Rain = 0
KDC1 131449Z 31002KT M01/M06 A3027 RMK A01 T10071056  RH  070%=      5-min Rain = 0
KDC1 131450Z 31002KT M01/M06 A3027 RMK A01 T10061056  RH  069%=      5-min Rain = 0
KDC1 131451Z 31001KT M01/M06 A3027 RMK A01 T10051056  RH  069%=      5-min Rain = 0
KDC1 131452Z 32001KT M01/M06 A3027 RMK A01 T10051056  RH  068%=      5-min Rain = 0
KDC1 131453Z 34001KT M00/M06 A3027 RMK A01 T10041056  RH  068%=      5-min Rain = 0
KDC1 131454Z 35001KT M00/M06 A3027 RMK A01 T10041056  RH  068%=      5-min Rain = 0
KDC1 131455Z 35000KT M00/M06 A3027 RMK A01 T10031055  RH  068%=      5-min Rain = 0
KDC1 131456Z 35001KT M00/M06 A3027 RMK A01 T10031055  RH  068%=      5-min Rain = 0
KDC1 131457Z 35001KT M00/M06 A3028 RMK A01 T10021055  RH  067%=      5-min Rain = 0
KDC1 131458Z 35002KT M00/M06 A3028 RMK A01 T10011057  RH  066%=      5-min Rain = 0
KDC1 131459Z 35002KT 00/06 A3028 RMK A01 T00-00-58  RH  065%=      5-min Rain = 0
KDC1 131500Z 35002KT 00/06 A3028 RMK A01 T00000-62  RH  063%=      5-min Rain = 0
KDC1 131501Z 34001KT 00/M06 A3028 RMK A01 T00011064  RH  061%=      5-min Rain = 0
KDC1 131502Z 34001KT 00/M07 A3028 RMK A01 T00021066  RH  060%=      5-min Rain = 0
KDC1 131503Z 34002KT 00/M07 A3028 RMK A01 T00031066  RH  060%=      5-min Rain = 0
KDC1 131504Z 33001KT 00/M07 A3028 RMK A01 T00031068  RH  059%=      5-min Rain = 0
KDC1 131505Z 35001KT 00/M07 A3028 RMK A01 T00041070  RH  058%=      5-min Rain = 0
KDC1 131506Z 35002KT 01/M07 A3028 RMK A01 T00051069  RH  057%=      5-min Rain = 0
KDC1 131507Z 35002KT 01/M07 A3028 RMK A01 T00061068  RH  058%=      5-min Rain = 0
KDC1 131508Z 35002KT 01/M07 A3028 RMK A01 T00071067  RH  058%=      5-min Rain = 0
KDC1 131509Z 36002KT 01/M07 A3028 RMK A01 T00081067  RH  057%=      5-min Rain = 0
KDC1 131510Z 00002KT 01/M07 A3028 RMK A01 T00091067  RH  057%=      5-min Rain = 0
KDC1 131511Z 00002KT 01/M07 A3028 RMK A01 T00101067  RH  057%=      5-min Rain = 0
KDC1 131512Z 01002KT 01/M07 A3028 RMK A01 T00111066  RH  056%=      5-min Rain = 0
KDC1 131513Z 01003KT 01/M07 A3028 RMK A01 T00131065  RH  056%=      5-min Rain = 0
KDC1 131514Z 01003KT 02/M06 A3028 RMK A01 T00151064  RH  056%=      5-min Rain = 0
KDC1 131515Z 01003KT 02/M07 A3028 RMK A01 T00171065  RH  055%=      5-min Rain = 0
KDC1 131516Z 01003KT 02/M06 A3028 RMK A01 T00201064  RH  054%=      5-min Rain = 0
KDC1 131517Z 04003KT 02/M07 A3029 RMK A01 T00231065  RH  052%=      5-min Rain = 0
KDC1 131518Z 02003KT 02/M07 A3029 RMK A01 T00241067  RH  051%=      5-min Rain = 0
KDC1 131519Z 03003KT 02/M07 A3029 RMK A01 T00241068  RH  051%=      5-min Rain = 0
KDC1 131520Z 03004KT 02/M07 A3029 RMK A01 T00241068  RH  051%=      5-min Rain = 0
KDC1 131521Z 02003KT 02/M07 A3029 RMK A01 T00241070  RH  050%=      5-min Rain = 0
KDC1 131522Z 01004KT 02/M07 A3029 RMK A01 T00241069  RH  050%=      5-min Rain = 0
KDC1 131523Z 01004KT 03/M07 A3029 RMK A01 T00251070  RH  049%=      5-min Rain = 0
KDC1 131524Z 01004KT 03/M07 A3029 RMK A01 T00251071  RH  049%=      5-min Rain = 0
KDC1 131525Z 00004KT 03/M07 A3029 RMK A01 T00261072  RH  048%=      5-min Rain = 0
KDC1 131526Z 35004KT 03/M07 A3029 RMK A01 T00261073  RH  048%=      5-min Rain = 0
KDC1 131527Z 35004KT 03/M07 A3029 RMK A01 T00271071  RH  048%=      5-min Rain = 0
KDC1 131528Z 36003KT 03/M07 A3029 RMK A01 T00281070  RH  048%=      5-min Rain = 0
KDC1 131529Z 00004KT 03/M07 A3029 RMK A01 T00301070  RH  048%=      5-min Rain = 0
KDC1 131530Z 00004KT 03/M07 A3029 RMK A01 T00311071  RH  047%=      5-min Rain = 0
KDC1 131531Z 36004KT 03/M07 A3029 RMK A01 T00311072  RH  047%=      5-min Rain = 0
KDC1 131532Z 01003KT 03/M07 A3029 RMK A01 T00311073  RH  046%=      5-min Rain = 0
KDC1 131533Z 36002KT 03/M07 A3029 RMK A01 T00321072  RH  046%=      5-min Rain = 0
KDC1 131534Z 35002KT 03/M07 A3029 RMK A01 T00341069  RH  047%=      5-min Rain = 0
KDC1 131535Z 35002KT 04/M07 A3029 RMK A01 T00361068  RH  047%=      5-min Rain = 0
KDC1 131536Z 00002KT 04/M07 A3029 RMK A01 T00361069  RH  046%=      5-min Rain = 0
KDC1 131537Z 36002KT 04/M07 A3029 RMK A01 T00361070  RH  046%=      5-min Rain = 0
KDC1 131538Z 35002KT 04/M07 A3029 RMK A01 T00361070  RH  046%=      5-min Rain = 0
KDC1 131539Z 36001KT 04/M07 A3029 RMK A01 T00371070  RH  045%=      5-min Rain = 0
KDC1 131540Z 35002KT 04/M07 A3029 RMK A01 T00381069  RH  045%=      5-min Rain = 0
KDC1 131541Z 35001KT 04/M07 A3029 RMK A01 T00381070  RH  045%=      5-min Rain = 0
KDC1 131542Z 35001KT 04/M07 A3029 RMK A01 T00391070  RH  045%=      5-min Rain = 0
KDC1 131543Z 00001KT 04/M07 A3029 RMK A01 T00391070  RH  045%=      5-min Rain = 0
KDC1 131544Z 03001KT 04/M07 A3029 RMK A01 T00401069  RH  045%=      5-min Rain = 0
KDC1 131545Z 02001KT 04/M07 A3029 RMK A01 T00411069  RH  045%=      5-min Rain = 0
KDC1 131546Z 01001KT 04/M07 A3029 RMK A01 T00411068  RH  045%=      5-min Rain = 0
KDC1 131547Z 02001KT 04/M07 A3029 RMK A01 T00411068  RH  045%=      5-min Rain = 0
KDC1 131548Z 04001KT 04/M07 A3029 RMK A01 T00421067  RH  045%=      5-min Rain = 0
KDC1 131549Z 03001KT 04/M07 A3029 RMK A01 T00431067  RH  045%=      5-min Rain = 0
KDC1 131550Z 04001KT 04/M07 A3029 RMK A01 T00441068  RH  044%=      5-min Rain = 0
KDC1 131551Z 03002KT 04/M07 A3029 RMK A01 T00441068  RH  044%=      5-min Rain = 0
KDC1 131552Z 02001KT 05/M07 A3029 RMK A01 T00451068  RH  044%=      5-min Rain = 0
KDC1 131553Z 01001KT 05/M07 A3029 RMK A01 T00451067  RH  044%=      5-min Rain = 0
KDC1 131554Z 03001KT 05/M07 A3029 RMK A01 T00451067  RH  044%=      5-min Rain = 0
KDC1 131555Z 05000KT 05/M07 A3029 RMK A01 T00461066  RH  044%=      5-min Rain = 0
KDC1 131556Z 01000KT 05/M07 A3029 RMK A01 T00481065  RH  044%=      5-min Rain = 0
KDC1 131557Z 05002KT 05/M06 A3029 RMK A01 T00501064  RH  043%=      5-min Rain = 0
KDC1 131558Z 05002KT 05/M07 A3029 RMK A01 T00511065  RH  043%=      5-min Rain = 0
KDC1 131559Z 06001KT 05/M07 A3029 RMK A01 T00511065  RH  043%=      5-min Rain = 0
KDC1 131600Z 04001KT 05/M06 A3029 RMK A01 T00511064  RH  043%=      5-min Rain = 0
KDC1 131601Z 05001KT 05/M07 A3029 RMK A01 T00521065  RH  043%=      5-min Rain = 0
KDC1 131602Z 04002KT 05/M07 A3029 RMK A01 T00521065  RH  043%=      5-min Rain = 0
KDC1 131603Z 05002KT 05/M06 A3029 RMK A01 T00531064  RH  043%=      5-min Rain = 0
KDC1 131604Z 05002KT 05/M06 A3029 RMK A01 T00541063  RH  043%=      5-min Rain = 0
KDC1 131605Z 06002KT 06/M06 A3029 RMK A01 T00551064  RH  042%=      5-min Rain = 0
KDC1 131606Z 07003KT 06/M06 A3029 RMK A01 T00561063  RH  042%=      5-min Rain = 0
KDC1 131607Z 06003KT 06/M06 A3029 RMK A01 T00551063  RH  042%=      5-min Rain = 0
KDC1 131608Z 05003KT 05/M06 A3029 RMK A01 T00541062  RH  043%=      5-min Rain = 0
KDC1 131609Z 05002KT 06/M06 A3029 RMK A01 T00551062  RH  043%=      5-min Rain = 0
KDC1 131610Z 04001KT 06/M06 A3029 RMK A01 T00551062  RH  042%=      5-min Rain = 0
KDC1 131611Z 05001KT 06/M06 A3029 RMK A01 T00561061  RH  043%=      5-min Rain = 0
KDC1 131612Z 05002KT 06/M06 A3029 RMK A01 T00571060  RH  043%=      5-min Rain = 0
KDC1 131613Z 04002KT 06/M06 A3028 RMK A01 T00581060  RH  042%=      5-min Rain = 0
KDC1 131614Z 03002KT 06/M06 A3028 RMK A01 T00581060  RH  042%=      5-min Rain = 0
KDC1 131615Z 03001KT 06/M06 A3028 RMK A01 T00571061  RH  042%=      5-min Rain = 0
KDC1 131616Z 00002KT 06/M06 A3028 RMK A01 T00571061  RH  042%=      5-min Rain = 0
KDC1 131617Z 01003KT 06/M06 A3029 RMK A01 T00571060  RH  042%=      5-min Rain = 0
KDC1 131618Z 01003KT 06/M06 A3029 RMK A01 T00581061  RH  042%=      5-min Rain = 0
KDC1 131619Z 35002KT 06/M06 A3029 RMK A01 T00581060  RH  042%=      5-min Rain = 0
KDC1 131620Z 34002KT 06/M06 A3029 RMK A01 T00581061  RH  042%=      5-min Rain = 0
KDC1 131621Z 01001KT 06/M06 A3029 RMK A01 T00581059  RH  042%=      5-min Rain = 0
KDC1 131622Z 04002KT 06/M06 A3029 RMK A01 T00601059  RH  042%=      5-min Rain = 0
KDC1 131623Z 05003KT 06/M06 A3029 RMK A01 T00611060  RH  042%=      5-min Rain = 0
KDC1 131624Z 03003KT 06/M06 A3029 RMK A01 T00611060  RH  042%=      5-min Rain = 0
KDC1 131625Z 03002KT 06/M06 A3029 RMK A01 T00611061  RH  041%=      5-min Rain = 0
KDC1 131626Z 04001KT 06/M06 A3029 RMK A01 T00611061  RH  041%=      5-min Rain = 0
KDC1 131627Z 03001KT 06/M06 A3029 RMK A01 T00611062  RH  041%=      5-min Rain = 0
KDC1 131628Z 06000KT 06/M06 A3029 RMK A01 T00611062  RH  041%=      5-min Rain = 0
KDC1 131629Z 05001KT 06/M06 A3029 RMK A01 T00631061  RH  041%=      5-min Rain = 0
KDC1 131630Z 05002KT 06/M06 A3029 RMK A01 T00631061  RH  041%=      5-min Rain = 0
KDC1 131631Z 06002KT 06/M06 A3029 RMK A01 T00631062  RH  040%=      5-min Rain = 0
KDC1 131632Z 06002KT 06/M06 A3029 RMK A01 T00631062  RH  041%=      5-min Rain = 0
KDC1 131633Z 07002KT 06/M06 A3029 RMK A01 T00621061  RH  041%=      5-min Rain = 0
KDC1 131634Z 07002KT 06/M06 A3029 RMK A01 T00621061  RH  041%=      5-min Rain = 0
KDC1 131635Z 09002KT 06/M06 A3029 RMK A01 T00611061  RH  041%=      5-min Rain = 0
KDC1 131636Z 07001KT 06/M06 A3029 RMK A01 T00611061  RH  041%=      5-min Rain = 0
KDC1 131637Z 05002KT 06/M06 A3029 RMK A01 T00621060  RH  041%=      5-min Rain = 0
KDC1 131638Z 03002KT 06/M06 A3029 RMK A01 T00631060  RH  041%=      5-min Rain = 0
KDC1 131639Z 03001KT 06/M06 A3029 RMK A01 T00631060  RH  041%=      5-min Rain = 0
KDC1 131640Z 04001KT 06/M06 A3029 RMK A01 T00631060  RH  041%=      5-min Rain = 0
KDC1 131641Z 06001KT 06/M06 A3029 RMK A01 T00631060  RH  041%=      5-min Rain = 0
KDC1 131642Z 05002KT 06/M06 A3029 RMK A01 T00641060  RH  041%=      5-min Rain = 0
KDC1 131643Z 04002KT 06/M06 A3029 RMK A01 T00641060  RH  041%=      5-min Rain = 0
KDC1 131644Z 04001KT 06/M06 A3029 RMK A01 T00641059  RH  041%=      5-min Rain = 0
KDC1 131645Z 05001KT 07/M06 A3029 RMK A01 T00651059  RH  041%=      5-min Rain = 0
KDC1 131646Z 05001KT 07/M06 A3029 RMK A01 T00651059  RH  040%=      5-min Rain = 0
KDC1 131647Z 06001KT 07/M06 A3029 RMK A01 T00661059  RH  040%=      5-min Rain = 0
KDC1 131648Z 00001KT 07/M06 A3029 RMK A01 T00681059  RH  040%=      5-min Rain = 0
KDC1 131649Z 02001KT 07/M06 A3029 RMK A01 T00681058  RH  040%=      5-min Rain = 0
KDC1 131650Z 03001KT 07/M06 A3029 RMK A01 T00691058  RH  040%=      5-min Rain = 0
KDC1 131651Z 03001KT 07/M06 A3029 RMK A01 T00691058  RH  040%=      5-min Rain = 0
KDC1 131652Z 00000KT 07/M06 A3029 RMK A01 T00681058  RH  040%=      5-min Rain = 0
KDC1 131653Z 00000KT 07/M06 A3029 RMK A01 T00691057  RH  040%=      5-min Rain = 0
KDC1 131654Z 08000KT 07/M06 A3029 RMK A01 T00711057  RH  040%=      5-min Rain = 0
KDC1 131655Z 07000KT 07/M06 A3029 RMK A01 T00731056  RH  039%=      5-min Rain = 0
KDC1 131656Z 13001KT 08/M06 A3029 RMK A01 T00751055  RH  039%=      5-min Rain = 0
KDC1 131657Z 13002KT 08/M06 A3029 RMK A01 T00751057  RH  039%=      5-min Rain = 0
KDC1 131658Z 13002KT 08/M06 A3029 RMK A01 T00751057  RH  039%=      5-min Rain = 0
KDC1 131659Z 12002KT 07/M06 A3029 RMK A01 T00741058  RH  039%=      5-min Rain = 0
KDC1 131700Z 11001KT 07/M06 A3029 RMK A01 T00741058  RH  039%=      5-min Rain = 0
KDC1 131701Z 12001KT 07/M06 A3029 RMK A01 T00731058  RH  039%=      5-min Rain = 0
KDC1 131702Z 13002KT 08/M06 A3029 RMK A01 T00751057  RH  039%=      5-min Rain = 0
KDC1 131703Z 11000KT 08/M06 A3029 RMK A01 T00751058  RH  038%=      5-min Rain = 0
KDC1 131704Z 08000KT 08/M06 A3029 RMK A01 T00751058  RH  038%=      5-min Rain = 0
KDC1 131705Z 08000KT 08/M06 A3029 RMK A01 T00781056  RH  038%=      5-min Rain = 0
KDC1 131706Z 08001KT 08/M05 A3029 RMK A01 T00811054  RH  038%=      5-min Rain = 0
KDC1 131707Z 09000KT 08/M06 A3029 RMK A01 T00821056  RH  037%=      5-min Rain = 0
KDC1 131708Z 00000KT 08/M06 A3029 RMK A01 T00821057  RH  037%=      5-min Rain = 0
KDC1 131709Z 00000KT 08/M06 A3029 RMK A01 T00841057  RH  036%=      5-min Rain = 0
KDC1 131710Z 07001KT 09/M06 A3029 RMK A01 T00851055  RH  036%=      5-min Rain = 0
KDC1 131711Z 36000KT 09/M05 A303 RMK A01 T00881054  RH  036%=      5-min Rain = 0
KDC1 131712Z 06000KT 09/M06 A303 RMK A01 T00881056  RH  036%=      5-min Rain = 0
KDC1 131713Z 36000KT 09/M05 A303 RMK A01 T00901054  RH  036%=      5-min Rain = 0
KDC1 131714Z 33001KT 09/M05 A303 RMK A01 T00921053  RH  036%=      5-min Rain = 0
KDC1 131715Z 00000KT 09/M05 A303 RMK A01 T00931053  RH  035%=      5-min Rain = 0
KDC1 131716Z 31000KT 09/M05 A303 RMK A01 T00941053  RH  035%=      5-min Rain = 0
KDC1 131717Z 34000KT 09/M05 A303 RMK A01 T00931053  RH  035%=      5-min Rain = 0
KDC1 131718Z 33000KT 09/M05 A303 RMK A01 T00931052  RH  036%=      5-min Rain = 0
KDC1 131719Z 33000KT 09/M05 A303 RMK A01 T00931052  RH  036%=      5-min Rain = 0
KDC1 131720Z 33000KT 09/M05 A303 RMK A01 T00941051  RH  036%=      5-min Rain = 0
KDC1 131721Z 31000KT 09/M05 A303 RMK A01 T00941051  RH  035%=      5-min Rain = 0
KDC1 131722Z 08000KT 10/M05 A303 RMK A01 T00961049  RH  035%=      5-min Rain = 0
KDC1 131723Z 05000KT 10/M05 A303 RMK A01 T00991050  RH  035%=      5-min Rain = 0
KDC1 131724Z 05001KT 10/M05 A303 RMK A01 T00991051  RH  034%=      5-min Rain = 0
KDC1 131725Z 00000KT 10/M05 A303 RMK A01 T00991050  RH  035%=      5-min Rain = 0
KDC1 131726Z 06000KT 10/M05 A303 RMK A01 T00981050  RH  035%=      5-min Rain = 0
KDC1 131727Z 36001KT 10/M05 A303 RMK A01 T00971050  RH  035%=      5-min Rain = 0
KDC1 131728Z 02000KT 10/M05 A303 RMK A01 T00981049  RH  035%=      5-min Rain = 0
KDC1 131729Z 28002KT 10/M05 A303 RMK A01 T01001048  RH  035%=      5-min Rain = 0
KDC1 131730Z 26000KT 10/M05 A303 RMK A01 T01001047  RH  035%=      5-min Rain = 0
KDC1 131731Z 31001KT 10/M05 A303 RMK A01 T01021045  RH  035%=      5-min Rain = 0
KDC1 131732Z 30001KT 10/M05 A303 RMK A01 T01031045  RH  035%=      5-min Rain = 0
KDC1 131733Z 31000KT 10/M04 A303 RMK A01 T01041044  RH  035%=      5-min Rain = 0
KDC1 131734Z 24002KT 11/M04 A303 RMK A01 T01061043  RH  035%=      5-min Rain = 0
KDC1 131735Z 25002KT 11/M05 A3029 RMK A01 T01071046  RH  034%=      5-min Rain = 0
KDC1 131736Z 25002KT 11/M05 A3029 RMK A01 T01071045  RH  034%=      5-min Rain = 0
KDC1 131737Z 26000KT 11/M05 A303 RMK A01 T01061045  RH  034%=      5-min Rain = 0
KDC1 131738Z 24001KT 11/M04 A303 RMK A01 T01071043  RH  035%=      5-min Rain = 0
KDC1 131739Z 26001KT 11/M04 A303 RMK A01 T01091042  RH  034%=      5-min Rain = 0
KDC1 131740Z 25002KT 11/M04 A303 RMK A01 T01111041  RH  034%=      5-min Rain = 0
KDC1 131741Z 21001KT 11/M04 A303 RMK A01 T01121041  RH  034%=      5-min Rain = 0
KDC1 131742Z 25001KT 11/M04 A303 RMK A01 T01121041  RH  034%=      5-min Rain = 0
KDC1 131743Z 27001KT 11/M04 A303 RMK A01 T01141039  RH  034%=      5-min Rain = 0
KDC1 131744Z 25002KT 12/M04 A303 RMK A01 T01151038  RH  034%=      5-min Rain = 0
KDC1 131745Z 31001KT 12/M04 A303 RMK A01 T01171037  RH  034%=      5-min Rain = 0
KDC1 131746Z 32000KT 12/M04 A303 RMK A01 T01171036  RH  034%=      5-min Rain = 0
KDC1 131747Z 18000KT 12/M04 A303 RMK A01 T01171036  RH  034%=      5-min Rain = 0
KDC1 131748Z 17001KT 12/M03 A303 RMK A01 T01181032  RH  035%=      5-min Rain = 0
KDC1 131749Z 17002KT 12/M03 A303 RMK A01 T01201032  RH  035%=      5-min Rain = 0
KDC1 131750Z 17001KT 12/M03 A303 RMK A01 T01201033  RH  034%=      5-min Rain = 0
KDC1 131751Z 28001KT 12/M03 A303 RMK A01 T01211034  RH  034%=      5-min Rain = 0
KDC1 131752Z 29001KT 12/M04 A303 RMK A01 T01211035  RH  033%=      5-min Rain = 0
KDC1 131753Z 30001KT 12/M03 A303 RMK A01 T01221034  RH  034%=      5-min Rain = 0
KDC1 131754Z 30002KT 12/M03 A303 RMK A01 T01221032  RH  034%=      5-min Rain = 0
KDC1 131755Z 28002KT 12/M03 A303 RMK A01 T01221030  RH  035%=      5-min Rain = 0
KDC1 131756Z 32002KT 12/M03 A303 RMK A01 T01221030  RH  035%=      5-min Rain = 0
KDC1 131757Z 29002KT 12/M03 A303 RMK A01 T01221030  RH  034%=      5-min Rain = 0
KDC1 131758Z 29004KT 12/M03 A303 RMK A01 T01211031  RH  035%=      5-min Rain = 0
KDC1 131759Z 29003KT 12/M03 A303 RMK A01 T01181033  RH  035%=      5-min Rain = 0
KDC1 131800Z 28002KT 12/M03 A3029 RMK A01 T01161034  RH  035%=      5-min Rain = 0
KDC1 131801Z 30002KT 12/M03 A3029 RMK A01 T01151034  RH  035%=      5-min Rain = 0
KDC1 131802Z 32001KT 12/M03 A3029 RMK A01 T01151033  RH  035%=      5-min Rain = 0
KDC1 131803Z 31000KT 12/M03 A3029 RMK A01 T01171032  RH  035%=      5-min Rain = 0
KDC1 131804Z 27001KT 12/M03 A3029 RMK A01 T01201030  RH  035%=      5-min Rain = 0
KDC1 131805Z 28002KT 12/M03 A3029 RMK A01 T01231033  RH  034%=      5-min Rain = 0
KDC1 131806Z 29002KT 12/M04 A3029 RMK A01 T01231036  RH  033%=      5-min Rain = 0
KDC1 131807Z 29002KT 12/M04 A3029 RMK A01 T01221036  RH  033%=      5-min Rain = 0
KDC1 131808Z 30001KT 12/M04 A3029 RMK A01 T01221036  RH  033%=      5-min Rain = 0
KDC1 131809Z 29002KT 12/M04 A3029 RMK A01 T01221036  RH  033%=      5-min Rain = 0
KDC1 131810Z 28001KT 12/M04 A303 RMK A01 T01221037  RH  033%=      5-min Rain = 0
KDC1 131811Z 27001KT 12/M04 A303 RMK A01 T01241035  RH  033%=      5-min Rain = 0
KDC1 131812Z 28000KT 13/M04 A303 RMK A01 T01251036  RH  032%=      5-min Rain = 0
KDC1 131813Z 08000KT 13/M04 A303 RMK A01 T01261035  RH  032%=      5-min Rain = 0
KDC1 131814Z 07001KT 13/M04 A303 RMK A01 T01271037  RH  032%=      5-min Rain = 0
KDC1 131815Z 09000KT 13/M04 A303 RMK A01 T01271035  RH  032%=      5-min Rain = 0
KDC1 131816Z 00000KT 13/M04 A303 RMK A01 T01271035  RH  032%=      5-min Rain = 0
KDC1 131817Z 09000KT 13/M04 A3029 RMK A01 T01271035  RH  032%=      5-min Rain = 0
KDC1 131818Z 09001KT 13/M04 A3029 RMK A01 T01291035  RH  032%=      5-min Rain = 0
KDC1 131819Z 07001KT 13/M03 A3029 RMK A01 T01301034  RH  032%=      5-min Rain = 0
KDC1 131820Z 05001KT 13/M04 A3029 RMK A01 T01301035  RH  031%=      5-min Rain = 0
KDC1 131821Z 07001KT 13/M04 A3029 RMK A01 T01291035  RH  032%=      5-min Rain = 0
KDC1 131822Z 06002KT 13/M04 A3029 RMK A01 T01281035  RH  032%=      5-min Rain = 0
KDC1 131823Z 07001KT 13/M03 A3029 RMK A01 T01281034  RH  032%=      5-min Rain = 0
KDC1 131824Z 06001KT 13/M03 A3029 RMK A01 T01281034  RH  032%=      5-min Rain = 0
KDC1 131825Z 05002KT 13/M03 A3029 RMK A01 T01291033  RH  032%=      5-min Rain = 0
KDC1 131826Z 06001KT 13/M03 A3029 RMK A01 T01311033  RH  032%=      5-min Rain = 0
KDC1 131827Z 06000KT 13/M03 A3029 RMK A01 T01321033  RH  032%=      5-min Rain = 0
KDC1 131828Z 07000KT 13/M03 A3029 RMK A01 T01331033  RH  031%=      5-min Rain = 0
KDC1 131829Z 06003KT 13/M03 A3029 RMK A01 T01341033  RH  031%=      5-min Rain = 0
KDC1 131830Z 08002KT 13/M04 A3029 RMK A01 T01331035  RH  031%=      5-min Rain = 0
KDC1 131831Z 10001KT 13/M04 A3029 RMK A01 T01301035  RH  031%=      5-min Rain = 0
KDC1 131832Z 12000KT 13/M04 A3029 RMK A01 T01301035  RH  032%=      5-min Rain = 0
KDC1 131833Z 21000KT 13/M03 A3029 RMK A01 T01331033  RH  031%=      5-min Rain = 0
KDC1 131834Z 22000KT 14/M03 A3028 RMK A01 T01351033  RH  031%=      5-min Rain = 0
KDC1 131835Z 12000KT 14/M03 A3028 RMK A01 T01371033  RH  031%=      5-min Rain = 0
KDC1 131836Z 15000KT 14/M03 A3028 RMK A01 T01391032  RH  030%=      5-min Rain = 0
KDC1 131837Z 19000KT 14/M03 A3028 RMK A01 T01421032  RH  030%=      5-min Rain = 0
KDC1 131838Z 35000KT 14/M03 A3028 RMK A01 T01441030  RH  030%=      5-min Rain = 0
KDC1 131839Z 01001KT 15/M03 A3028 RMK A01 T01461030  RH  030%=      5-min Rain = 0
KDC1 131840Z 05001KT 15/M03 A3028 RMK A01 T01451030  RH  030%=      5-min Rain = 0
KDC1 131841Z 07003KT 14/M03 A3028 RMK A01 T01441029  RH  030%=      5-min Rain = 0
KDC1 131842Z 06003KT 14/M03 A3028 RMK A01 T01431030  RH  030%=      5-min Rain = 0
KDC1 131843Z 06003KT 14/M03 A3028 RMK A01 T01411030  RH  030%=      5-min Rain = 0
KDC1 131844Z 06004KT 14/M03 A3028 RMK A01 T01421029  RH  030%=      5-min Rain = 0
KDC1 131845Z 05004KT 14/M03 A3028 RMK A01 T01421030  RH  030%=      5-min Rain = 0
KDC1 131846Z 04003KT 14/M03 A3028 RMK A01 T01401030  RH  031%=      5-min Rain = 0
KDC1 131847Z 04002KT 14/M03 A3028 RMK A01 T01381031  RH  031%=      5-min Rain = 0
KDC1 131848Z 09001KT 14/M03 A3028 RMK A01 T01371030  RH  031%=      5-min Rain = 0
KDC1 131849Z 06003KT 14/M03 A3028 RMK A01 T01371029  RH  032%=      5-min Rain = 0
KDC1 131850Z 07003KT 14/M03 A3028 RMK A01 T01371029  RH  032%=      5-min Rain = 0
KDC1 131851Z 07003KT 14/M03 A3028 RMK A01 T01371029  RH  032%=      5-min Rain = 0
KDC1 131852Z 06002KT 14/M03 A3028 RMK A01 T01361029  RH  032%=      5-min Rain = 0
KDC1 131853Z 07002KT 14/M03 A3028 RMK A01 T01361028  RH  032%=      5-min Rain = 0
KDC1 131854Z 05001KT 14/M03 A3028 RMK A01 T01371028  RH  032%=      5-min Rain = 0
KDC1 131855Z 09003KT 14/M03 A3028 RMK A01 T01391027  RH  032%=      5-min Rain = 0
KDC1 131856Z 12004KT 14/M03 A3028 RMK A01 T01401027  RH  031%=      5-min Rain = 0
KDC1 131857Z 13004KT 14/M03 A3027 RMK A01 T01421025  RH  031%=      5-min Rain = 0
KDC1 131858Z 14004KT 14/M03 A3027 RMK A01 T01431026  RH  031%=      5-min Rain = 0
KDC1 131859Z 13004KT 14/M03 A3027 RMK A01 T01431027  RH  031%=      5-min Rain = 0
KDC1 131900Z 14004KT 14/M03 A3027 RMK A01 T01401028  RH  031%=      5-min Rain = 0
KDC1 131901Z 15003KT 14/M03 A3027 RMK A01 T01411026  RH  031%=      5-min Rain = 0
KDC1 131902Z 14003KT 14/M03 A3027 RMK A01 T01421026  RH  031%=      5-min Rain = 0
KDC1 131903Z 12003KT 14/M03 A3027 RMK A01 T01421026  RH  031%=      5-min Rain = 0
KDC1 131904Z 11002KT 14/M03 A3027 RMK A01 T01421026  RH  031%=      5-min Rain = 0
KDC1 131905Z 09001KT 14/M03 A3027 RMK A01 T01421027  RH  031%=      5-min Rain = 0
KDC1 131906Z 15001KT 14/M03 A3027 RMK A01 T01441026  RH  031%=      5-min Rain = 0
KDC1 131907Z 15003KT 15/M02 A3027 RMK A01 T01471023  RH  031%=      5-min Rain = 0
KDC1 131908Z 16001KT 15/M02 A3027 RMK A01 T01501023  RH  030%=      5-min Rain = 0
KDC1 131909Z 08000KT 15/M02 A3027 RMK A01 T01521024  RH  030%=      5-min Rain = 0
KDC1 131910Z 08002KT 15/M02 A3027 RMK A01 T01541023  RH  029%=      5-min Rain = 0
KDC1 131911Z 08004KT 16/M02 A3027 RMK A01 T01551023  RH  029%=      5-min Rain = 0
KDC1 131912Z 08004KT 15/M02 A3027 RMK A01 T01531024  RH  029%=      5-min Rain = 0
KDC1 131913Z 08004KT 15/M02 A3027 RMK A01 T01501024  RH  030%=      5-min Rain = 0
KDC1 131914Z 08004KT 15/M02 A3027 RMK A01 T01501023  RH  030%=      5-min Rain = 0
KDC1 131915Z 07004KT 15/M02 A3027 RMK A01 T01501023  RH  030%=      5-min Rain = 0
KDC1 131916Z 07004KT 15/M02 A3027 RMK A01 T01511023  RH  030%=      5-min Rain = 0
KDC1 131917Z 08003KT 15/M03 A3027 RMK A01 T01481026  RH  030%=      5-min Rain = 0
KDC1 131918Z 06002KT 15/M03 A3027 RMK A01 T01451026  RH  031%=      5-min Rain = 0
KDC1 131919Z 03002KT 14/M03 A3027 RMK A01 T01441026  RH  031%=      5-min Rain = 0
KDC1 131920Z 05003KT 15/M03 A3026 RMK A01 T01461025  RH  031%=      5-min Rain = 0
KDC1 131921Z 03002KT 15/M03 A3026 RMK A01 T01461025  RH  031%=      5-min Rain = 0
KDC1 131922Z 00000KT 15/M02 A3026 RMK A01 T01471024  RH  031%=      5-min Rain = 0
KDC1 131923Z 08002KT 15/M02 A3026 RMK A01 T01501022  RH  030%=      5-min Rain = 0
KDC1 131924Z 08003KT 15/M02 A3026 RMK A01 T01531023  RH  030%=      5-min Rain = 0
KDC1 131925Z 12003KT 15/M02 A3026 RMK A01 T01541024  RH  029%=      5-min Rain = 0
KDC1 131926Z 14004KT 15/M03 A3026 RMK A01 T01531026  RH  029%=      5-min Rain = 0
KDC1 131927Z 13004KT 15/M03 A3026 RMK A01 T01521026  RH  029%=      5-min Rain = 0
KDC1 131928Z 12003KT 15/M03 A3026 RMK A01 T01501027  RH  029%=      5-min Rain = 0
KDC1 131929Z 14002KT 15/M03 A3026 RMK A01 T01491027  RH  030%=      5-min Rain = 0
KDC1 131930Z 12002KT 15/M03 A3026 RMK A01 T01481028  RH  030%=      5-min Rain = 0
KDC1 131931Z 11003KT 15/M03 A3026 RMK A01 T01491028  RH  029%=      5-min Rain = 0
KDC1 131932Z 10002KT 15/M03 A3026 RMK A01 T01501028  RH  029%=      5-min Rain = 0
KDC1 131933Z 14001KT 15/M03 A3025 RMK A01 T01501027  RH  029%=      5-min Rain = 0
KDC1 131934Z 04001KT 15/M03 A3025 RMK A01 T01531027  RH  029%=      5-min Rain = 0
KDC1 131935Z 02000KT 15/M03 A3025 RMK A01 T01541028  RH  029%=      5-min Rain = 0
KDC1 131936Z 29000KT 15/M03 A3025 RMK A01 T01531027  RH  029%=      5-min Rain = 0
KDC1 131937Z 27001KT 15/M03 A3025 RMK A01 T01531026  RH  029%=      5-min Rain = 0
KDC1 131938Z 30001KT 15/M03 A3025 RMK A01 T01531026  RH  029%=      5-min Rain = 0
KDC1 131939Z 33002KT 15/M03 A3025 RMK A01 T01541025  RH  029%=      5-min Rain = 0
KDC1 131940Z 02002KT 16/M03 A3025 RMK A01 T01551025  RH  029%=      5-min Rain = 0
KDC1 131941Z 11004KT 16/M02 A3025 RMK A01 T01571024  RH  029%=      5-min Rain = 0
KDC1 131942Z 10004KT 16/M02 A3025 RMK A01 T01561024  RH  029%=      5-min Rain = 0
KDC1 131943Z 13002KT 15/M02 A3025 RMK A01 T01541024  RH  029%=      5-min Rain = 0
KDC1 131944Z 16000KT 15/M02 A3025 RMK A01 T01541024  RH  029%=      5-min Rain = 0
KDC1 131945Z 11002KT 16/M02 A3025 RMK A01 T01571023  RH  029%=      5-min Rain = 0
KDC1 131946Z 12002KT 16/M03 A3025 RMK A01 T01581025  RH  028%=      5-min Rain = 0
KDC1 131947Z 08002KT 16/M03 A3025 RMK A01 T01581025  RH  028%=      5-min Rain = 0
KDC1 131948Z 07004KT 16/M03 A3024 RMK A01 T01591025  RH  028%=      5-min Rain = 0
KDC1 131949Z 08003KT 16/M03 A3024 RMK A01 T01591026  RH  028%=      5-min Rain = 0
KDC1 131950Z 08002KT 16/M03 A3024 RMK A01 T01581025  RH  028%=      5-min Rain = 0
KDC1 131951Z 07000KT 16/M03 A3024 RMK A01 T01571025  RH  029%=      5-min Rain = 0
KDC1 131952Z 07002KT 16/M03 A3024 RMK A01 T01561025  RH  029%=      5-min Rain = 0
KDC1 131953Z 08002KT 16/M03 A3024 RMK A01 T01571026  RH  028%=      5-min Rain = 0
KDC1 131954Z 07002KT 16/M03 A3024 RMK A01 T01571026  RH  028%=      5-min Rain = 0
KDC1 131955Z 05000KT 16/M03 A3024 RMK A01 T01571026  RH  028%=      5-min Rain = 0
KDC1 131956Z 04001KT 16/M03 A3024 RMK A01 T01571025  RH  029%=      5-min Rain = 0
KDC1 131957Z 02002KT 16/M03 A3024 RMK A01 T01571025  RH  028%=      5-min Rain = 0
KDC1 131958Z 05001KT 16/M03 A3024 RMK A01 T01571026  RH  028%=      5-min Rain = 0
KDC1 131959Z 11001KT 16/M03 A3024 RMK A01 T01571025  RH  028%=      5-min Rain = 0
KDC1 132000Z 10002KT 16/M03 A3024 RMK A01 T01571025  RH  028%=      5-min Rain = 0
KDC1 132001Z 11002KT 16/M03 A3024 RMK A01 T01581026  RH  028%=      5-min Rain = 0
KDC1 132002Z 09002KT 16/M03 A3024 RMK A01 T01601025  RH  028%=      5-min Rain = 0
KDC1 132003Z 06003KT 16/M03 A3024 RMK A01 T01611027  RH  027%=      5-min Rain = 0
KDC1 132004Z 10002KT 16/M03 A3024 RMK A01 T01611026  RH  027%=      5-min Rain = 0
KDC1 132005Z 11004KT 16/M03 A3024 RMK A01 T01631026  RH  027%=      5-min Rain = 0
KDC1 132006Z 11002KT 16/M03 A3024 RMK A01 T01631027  RH  027%=      5-min Rain = 0
KDC1 132007Z 12003KT 16/M03 A3024 RMK A01 T01621027  RH  027%=      5-min Rain = 0
KDC1 132008Z 13003KT 16/M03 A3024 RMK A01 T01621028  RH  027%=      5-min Rain = 0
KDC1 132009Z 13001KT 16/M03 A3024 RMK A01 T01621028  RH  027%=      5-min Rain = 0
KDC1 132010Z 15001KT 16/M03 A3024 RMK A01 T01631027  RH  027%=      5-min Rain = 0
KDC1 132011Z 14001KT 16/M03 A3024 RMK A01 T01641027  RH  027%=      5-min Rain = 0
KDC1 132012Z 11002KT 16/M03 A3024 RMK A01 T01641027  RH  027%=      5-min Rain = 0
KDC1 132013Z 09001KT 17/M03 A3024 RMK A01 T01661026  RH  027%=      5-min Rain = 0
KDC1 132014Z 07001KT 17/M03 A3024 RMK A01 T01661025  RH  027%=      5-min Rain = 0
KDC1 132015Z 06002KT 17/M02 A3024 RMK A01 T01671023  RH  027%=      5-min Rain = 0
KDC1 132016Z 07002KT 17/M02 A3024 RMK A01 T01651024  RH  027%=      5-min Rain = 0
KDC1 132017Z 06003KT 16/M02 A3023 RMK A01 T01641024  RH  027%=      5-min Rain = 0
KDC1 132018Z 08002KT 16/M02 A3023 RMK A01 T01631024  RH  028%=      5-min Rain = 0
KDC1 132019Z 06001KT 16/M02 A3023 RMK A01 T01611024  RH  028%=      5-min Rain = 0
KDC1 132020Z 04002KT 16/M02 A3023 RMK A01 T01621023  RH  028%=      5-min Rain = 0
KDC1 132021Z 03002KT 16/M02 A3023 RMK A01 T01631024  RH  028%=      5-min Rain = 0
KDC1 132022Z 03003KT 16/M02 A3023 RMK A01 T01631024  RH  028%=      5-min Rain = 0
KDC1 132023Z 04001KT 16/M02 A3023 RMK A01 T01641023  RH  028%=      5-min Rain = 0
KDC1 132024Z 01001KT 17/M02 A3023 RMK A01 T01651023  RH  028%=      5-min Rain = 0
KDC1 132025Z 08001KT 17/M02 A3023 RMK A01 T01671023  RH  027%=      5-min Rain = 0
KDC1 132026Z 08002KT 17/M02 A3023 RMK A01 T01681022  RH  027%=      5-min Rain = 0
KDC1 132027Z 10001KT 17/M02 A3023 RMK A01 T01681023  RH  027%=      5-min Rain = 0
KDC1 132028Z 10001KT 17/M02 A3023 RMK A01 T01681023  RH  027%=      5-min Rain = 0
KDC1 132029Z 09001KT 17/M02 A3022 RMK A01 T01681023  RH  027%=      5-min Rain = 0
KDC1 132030Z 09001KT 17/M02 A3022 RMK A01 T01671023  RH  027%=      5-min Rain = 0
KDC1 132031Z 07001KT 17/M02 A3022 RMK A01 T01671022  RH  027%=      5-min Rain = 0
KDC1 132032Z 08003KT 17/M02 A3022 RMK A01 T01681023  RH  027%=      5-min Rain = 0
KDC1 132033Z 10002KT 17/M03 A3022 RMK A01 T01671025  RH  027%=      5-min Rain = 0
KDC1 132034Z 10002KT 17/M02 A3022 RMK A01 T01661024  RH  027%=      5-min Rain = 0
KDC1 132035Z 11002KT 17/M02 A3022 RMK A01 T01671024  RH  027%=      5-min Rain = 0
KDC1 132036Z 11003KT 17/M02 A3022 RMK A01 T01681024  RH  027%=      5-min Rain = 0
KDC1 132037Z 10003KT 17/M02 A3022 RMK A01 T01681024  RH  027%=      5-min Rain = 0
KDC1 132038Z 11003KT 17/M02 A3022 RMK A01 T01671024  RH  027%=      5-min Rain = 0
KDC1 132039Z 12003KT 17/M02 A3022 RMK A01 T01661023  RH  027%=      5-min Rain = 0
KDC1 132040Z 13004KT 17/M02 A3022 RMK A01 T01661024  RH  027%=      5-min Rain = 0
KDC1 132041Z 11003KT 17/M03 A3022 RMK A01 T01671025  RH  027%=      5-min Rain = 0
KDC1 132042Z 14002KT 17/M03 A3023 RMK A01 T01661025  RH  027%=      5-min Rain = 0
KDC1 132043Z 16002KT 17/M03 A3023 RMK A01 T01661025  RH  027%=      5-min Rain = 0
KDC1 132044Z 16001KT 17/M02 A3023 RMK A01 T01671024  RH  027%=      5-min Rain = 0
KDC1 132045Z 16001KT 17/M02 A3023 RMK A01 T01671024  RH  027%=      5-min Rain = 0
KDC1 132046Z 15001KT 17/M02 A3022 RMK A01 T01681024  RH  027%=      5-min Rain = 0
KDC1 132047Z 12002KT 17/M02 A3022 RMK A01 T01701024  RH  027%=      5-min Rain = 0
KDC1 132048Z 12002KT 17/M02 A3022 RMK A01 T01721024  RH  026%=      5-min Rain = 0
KDC1 132049Z 12002KT 17/M02 A3022 RMK A01 T01731024  RH  026%=      5-min Rain = 0
KDC1 132050Z 11003KT 17/M02 A3022 RMK A01 T01741023  RH  026%=      5-min Rain = 0
KDC1 132051Z 12004KT 17/M02 A3022 RMK A01 T01731023  RH  026%=      5-min Rain = 0
KDC1 132052Z 12005KT 17/M02 A3022 RMK A01 T01721024  RH  026%=      5-min Rain = 0
KDC1 132053Z 12003KT 17/M02 A3021 RMK A01 T01701024  RH  026%=      5-min Rain = 0
KDC1 132054Z 12003KT 17/M02 A3021 RMK A01 T01691023  RH  027%=      5-min Rain = 0
KDC1 132055Z 13002KT 17/M02 A3021 RMK A01 T01691022  RH  027%=      5-min Rain = 0
KDC1 132056Z 13004KT 17/M02 A3021 RMK A01 T01711022  RH  027%=      5-min Rain = 0
KDC1 132057Z 14003KT 17/M02 A3021 RMK A01 T01711023  RH  026%=      5-min Rain = 0
KDC1 132058Z 14002KT 17/M02 A3021 RMK A01 T01711024  RH  026%=      5-min Rain = 0
KDC1 132059Z 16002KT 17/M02 A3021 RMK A01 T01721024  RH  026%=      5-min Rain = 0
KDC1 132100Z 15002KT 17/M02 A3021 RMK A01 T01731023  RH  026%=      5-min Rain = 0
KDC1 132101Z 09002KT 17/M02 A3022 RMK A01 T01741023  RH  026%=      5-min Rain = 0
KDC1 132102Z 10002KT 17/M02 A3022 RMK A01 T01741022  RH  026%=      5-min Rain = 0
KDC1 132103Z 13002KT 18/M02 A3022 RMK A01 T01751022  RH  026%=      5-min Rain = 0
KDC1 132104Z 09001KT 18/M02 A3022 RMK A01 T01771022  RH  026%=      5-min Rain = 0
KDC1 132105Z 05001KT 18/M02 A3022 RMK A01 T01781022  RH  026%=      5-min Rain = 0
KDC1 132106Z 05001KT 18/M02 A3022 RMK A01 T01781024  RH  025%=      5-min Rain = 0
KDC1 132107Z 05001KT 18/M02 A3022 RMK A01 T01781023  RH  025%=      5-min Rain = 0
KDC1 132108Z 03002KT 18/M02 A3022 RMK A01 T01791022  RH  025%=      5-min Rain = 0
KDC1 132109Z 11002KT 18/M02 A3022 RMK A01 T01801022  RH  025%=      5-min Rain = 0
KDC1 132110Z 11001KT 18/M02 A3022 RMK A01 T01811022  RH  025%=      5-min Rain = 0
KDC1 132111Z 11002KT 18/M02 A3021 RMK A01 T01821021  RH  025%=      5-min Rain = 0
KDC1 132112Z 11002KT 18/M02 A3021 RMK A01 T01821022  RH  025%=      5-min Rain = 0
KDC1 132113Z 15001KT 18/M02 A3021 RMK A01 T01811024  RH  025%=      5-min Rain = 0
KDC1 132114Z 16001KT 18/M02 A3021 RMK A01 T01811024  RH  025%=      5-min Rain = 0
KDC1 132115Z 15001KT 18/M02 A3021 RMK A01 T01821022  RH  025%=      5-min Rain = 0
KDC1 132116Z 15003KT 18/M02 A3021 RMK A01 T01831022  RH  025%=      5-min Rain = 0
KDC1 132117Z 15003KT 18/M02 A3021 RMK A01 T01841022  RH  025%=      5-min Rain = 0
KDC1 132118Z 12003KT 18/M02 A3021 RMK A01 T01841021  RH  025%=      5-min Rain = 0
KDC1 132119Z 12003KT 18/M02 A3021 RMK A01 T01831021  RH  025%=      5-min Rain = 0
KDC1 132120Z 12001KT 18/M02 A3021 RMK A01 T01811022  RH  025%=      5-min Rain = 0
KDC1 132121Z 11004KT 18/M02 A3021 RMK A01 T01801022  RH  025%=      5-min Rain = 0
KDC1 132122Z 11004KT 18/M02 A3021 RMK A01 T01791024  RH  025%=      5-min Rain = 0
KDC1 132123Z 10003KT 18/M03 A3021 RMK A01 T01781026  RH  025%=      5-min Rain = 0
KDC1 132124Z 10003KT 18/M03 A3021 RMK A01 T01771027  RH  025%=      5-min Rain = 0
KDC1 132125Z 11002KT 18/M03 A3021 RMK A01 T01771026  RH  025%=      5-min Rain = 0
KDC1 132126Z 11002KT 18/M03 A3021 RMK A01 T01781025  RH  025%=      5-min Rain = 0
KDC1 132127Z 09003KT 18/M02 A3021 RMK A01 T01791024  RH  025%=      5-min Rain = 0
KDC1 132128Z 08003KT 18/M03 A3021 RMK A01 T01801027  RH  024%=      5-min Rain = 0
KDC1 132129Z 11005KT 18/M02 A3021 RMK A01 T01821023  RH  025%=      5-min Rain = 0
KDC1 132130Z 10005KT 18/M02 A3021 RMK A01 T01811022  RH  025%=      5-min Rain = 0
KDC1 132131Z 12004KT 18/M02 A3021 RMK A01 T01791022  RH  025%=      5-min Rain = 0
KDC1 132132Z 12003KT 18/M02 A3021 RMK A01 T01791023  RH  025%=      5-min Rain = 0
KDC1 132133Z 11004KT 18/M02 A3021 RMK A01 T01801023  RH  025%=      5-min Rain = 0
KDC1 132134Z 10004KT 18/M02 A3021 RMK A01 T01811023  RH  025%=      5-min Rain = 0
KDC1 132135Z 11004KT 18/M02 A3021 RMK A01 T01801023  RH  025%=      5-min Rain = 0
KDC1 132136Z 12003KT 18/M03 A3021 RMK A01 T01801025  RH  025%=      5-min Rain = 0
KDC1 132137Z 11004KT 18/M02 A3021 RMK A01 T01801024  RH  025%=      5-min Rain = 0
KDC1 132138Z 11004KT 18/M03 A3021 RMK A01 T01801026  RH  024%=      5-min Rain = 0
KDC1 132139Z 11004KT 18/M03 A3021 RMK A01 T01801025  RH  025%=      5-min Rain = 0
KDC1 132140Z 10004KT 18/M03 A3021 RMK A01 T01811025  RH  025%=      5-min Rain = 0
KDC1 132141Z 10003KT 18/M03 A3021 RMK A01 T01811025  RH  025%=      5-min Rain = 0
KDC1 132142Z 11005KT 18/M02 A3021 RMK A01 T01821024  RH  025%=      5-min Rain = 0
KDC1 132143Z 10004KT 18/M02 A3021 RMK A01 T01821024  RH  024%=      5-min Rain = 0
KDC1 132144Z 11004KT 18/M02 A302 RMK A01 T01821024  RH  025%=      5-min Rain = 0
KDC1 132145Z 11004KT 18/M02 A3021 RMK A01 T01821022  RH  025%=      5-min Rain = 0
KDC1 132146Z 11004KT 18/M02 A302 RMK A01 T01821022  RH  025%=      5-min Rain = 0
KDC1 132147Z 10005KT 18/M02 A3021 RMK A01 T01821022  RH  025%=      5-min Rain = 0
KDC1 132148Z 10004KT 18/M02 A3021 RMK A01 T01821022  RH  025%=      5-min Rain = 0
KDC1 132149Z 11004KT 18/M02 A302 RMK A01 T01821022  RH  025%=      5-min Rain = 0
KDC1 132150Z 12004KT 18/M02 A302 RMK A01 T01841020  RH  025%=      5-min Rain = 0
KDC1 132151Z 09003KT 18/M02 A302 RMK A01 T01841020  RH  025%=      5-min Rain = 0
KDC1 132152Z 10005KT 18/M02 A302 RMK A01 T01841022  RH  025%=      5-min Rain = 0
KDC1 132153Z 11004KT 18/M02 A302 RMK A01 T01841023  RH  024%=      5-min Rain = 0
KDC1 132154Z 10005KT 18/M02 A302 RMK A01 T01841024  RH  024%=      5-min Rain = 0
KDC1 132155Z 10005KT 18/M02 A302 RMK A01 T01841024  RH  024%=      5-min Rain = 0
KDC1 132156Z 10005KT 18/M02 A302 RMK A01 T01831023  RH  025%=      5-min Rain = 0
KDC1 132157Z 11005KT 18/M02 A302 RMK A01 T01821023  RH  025%=      5-min Rain = 0
KDC1 132158Z 10005KT 18/M02 A302 RMK A01 T01821024  RH  025%=      5-min Rain = 0
KDC1 132159Z 10004KT 18/M02 A302 RMK A01 T01831024  RH  024%=      5-min Rain = 0
KDC1 132200Z 09005KT 18/M02 A302 RMK A01 T01831023  RH  025%=      5-min Rain = 0
KDC1 132201Z 10004KT 18/M02 A302 RMK A01 T01841023  RH  024%=      5-min Rain = 0
KDC1 132202Z 10005KT 18/M02 A302 RMK A01 T01841024  RH  024%=      5-min Rain = 0
KDC1 132203Z 10005KT 19/M02 A302 RMK A01 T01851024  RH  024%=      5-min Rain = 0
KDC1 132204Z 10006KT 19/M02 A302 RMK A01 T01851024  RH  024%=      5-min Rain = 0
KDC1 132205Z 10005KT 19/M02 A302 RMK A01 T01851024  RH  024%=      5-min Rain = 0
KDC1 132206Z 11005KT 19/M02 A302 RMK A01 T01851024  RH  024%=      5-min Rain = 0
KDC1 132207Z 11004KT 19/M03 A302 RMK A01 T01851025  RH  024%=      5-min Rain = 0
KDC1 132208Z 11006KT 19/M03 A302 RMK A01 T01851026  RH  024%=      5-min Rain = 0
KDC1 132209Z 11005KT 19/M03 A302 RMK A01 T01851026  RH  024%=      5-min Rain = 0
KDC1 132210Z 11006KT 19/M03 A302 RMK A01 T01851025  RH  024%=      5-min Rain = 0
KDC1 132211Z 12006KT 19/M03 A302 RMK A01 T01851025  RH  024%=      5-min Rain = 0
KDC1 132212Z 12006KT 19/M03 A302 RMK A01 T01861025  RH  024%=      5-min Rain = 0
KDC1 132213Z 12006KT 19/M03 A302 RMK A01 T01861026  RH  023%=      5-min Rain = 0
KDC1 132214Z 12007KT 19/M02 A302 RMK A01 T01861024  RH  024%=      5-min Rain = 0
KDC1 132215Z 12007KT 19/M02 A302 RMK A01 T01861023  RH  024%=      5-min Rain = 0
KDC1 132216Z 11006KT 19/M03 A302 RMK A01 T01871025  RH  024%=      5-min Rain = 0
KDC1 132217Z 12005KT 19/M03 A302 RMK A01 T01881025  RH  024%=      5-min Rain = 0
KDC1 132218Z 12006KT 19/M02 A302 RMK A01 T01891021  RH  024%=      5-min Rain = 0
KDC1 132219Z 12005KT 19/M02 A302 RMK A01 T01891018  RH  024%=      5-min Rain = 0
KDC1 132220Z 11005KT 19/M02 A302 RMK A01 T01901020  RH  024%=      5-min Rain = 0
KDC1 132221Z 12005KT 19/M02 A302 RMK A01 T01901022  RH  024%=      5-min Rain = 0
KDC1 132222Z 12007KT 19/M03 A302 RMK A01 T01911025  RH  023%=      5-min Rain = 0
KDC1 132223Z 12006KT 19/M03 A302 RMK A01 T01911026  RH  023%=      5-min Rain = 0
KDC1 132224Z 11007KT 19/M03 A302 RMK A01 T01911029  RH  022%=      5-min Rain = 0
KDC1 132225Z 12006KT 19/M03 A302 RMK A01 T01921029  RH  022%=      5-min Rain = 0
KDC1 132226Z 11007KT 19/M03 A302 RMK A01 T01931030  RH  022%=      5-min Rain = 0
KDC1 132227Z 11006KT 19/M03 A302 RMK A01 T01931031  RH  022%=      5-min Rain = 0
KDC1 132228Z 11007KT 19/M03 A302 RMK A01 T01931030  RH  022%=      5-min Rain = 0
KDC1 132229Z 12007KT 19/M03 A302 RMK A01 T01931031  RH  022%=      5-min Rain = 0
KDC1 132230Z 12006KT 19/M03 A302 RMK A01 T01941031  RH  022%=      5-min Rain = 0
KDC1 132231Z 12006KT 20/M03 A302 RMK A01 T01951029  RH  022%=      5-min Rain = 0
KDC1 132232Z 12007KT 20/M03 A302 RMK A01 T01951028  RH  022%=      5-min Rain = 0
KDC1 132233Z 13007KT 19/M03 A302 RMK A01 T01941026  RH  022%=      5-min Rain = 0
KDC1 132234Z 13006KT 20/M03 A302 RMK A01 T01951029  RH  022%=      5-min Rain = 0
KDC1 132235Z 12006KT 20/M03 A302 RMK A01 T01961029  RH  022%=      5-min Rain = 0
KDC1 132236Z 12006KT 20/M03 A302 RMK A01 T01961029  RH  022%=      5-min Rain = 0
KDC1 132237Z 12007KT 20/M03 A302 RMK A01 T01961029  RH  022%=      5-min Rain = 0
KDC1 132238Z 13006KT 20/M03 A302 RMK A01 T01951032  RH  021%=      5-min Rain = 0
KDC1 132239Z 12006KT 20/M03 A302 RMK A01 T01951032  RH  021%=      5-min Rain = 0
KDC1 132240Z 12006KT 20/M03 A302 RMK A01 T01951033  RH  021%=      5-min Rain = 0
KDC1 132241Z 12006KT 20/M03 A302 RMK A01 T01951032  RH  021%=      5-min Rain = 0
KDC1 132242Z 12006KT 20/M03 A302 RMK A01 T01951027  RH  022%=      5-min Rain = 0
KDC1 132243Z 12005KT 20/M02 A302 RMK A01 T01951023  RH  023%=      5-min Rain = 0
KDC1 132244Z 12007KT 20/M03 A302 RMK A01 T01951026  RH  022%=      5-min Rain = 0
KDC1 132245Z 12007KT 20/M03 A302 RMK A01 T01951029  RH  022%=      5-min Rain = 0
KDC1 132246Z 12007KT 20/M02 A302 RMK A01 T01951024  RH  023%=      5-min Rain = 0
KDC1 132247Z 12005KT 20/M03 A302 RMK A01 T01951031  RH  022%=      5-min Rain = 0
KDC1 132248Z 11005KT 20/M03 A302 RMK A01 T01951027  RH  022%=      5-min Rain = 0
KDC1 132249Z 12005KT 20/M03 A302 RMK A01 T01961028  RH  022%=      5-min Rain = 0
KDC1 132250Z 12005KT 20/M03 A302 RMK A01 T01971027  RH  022%=      5-min Rain = 0
KDC1 132251Z 12006KT 20/M03 A302 RMK A01 T01971026  RH  022%=      5-min Rain = 0
KDC1 132252Z 12006KT 20/M02 A302 RMK A01 T01971024  RH  022%=      5-min Rain = 0
KDC1 132253Z 12006KT 20/M03 A302 RMK A01 T01971025  RH  022%=      5-min Rain = 0
KDC1 132254Z 12006KT 20/M03 A302 RMK A01 T01971028  RH  022%=      5-min Rain = 0
KDC1 132255Z 11005KT 20/M03 A302 RMK A01 T01971031  RH  021%=      5-min Rain = 0
KDC1 132256Z 12005KT 20/M03 A302 RMK A01 T01971030  RH  021%=      5-min Rain = 0
KDC1 132257Z 12005KT 20/M03 A302 RMK A01 T01971027  RH  022%=      5-min Rain = 0
KDC1 132258Z 11005KT 20/M03 A302 RMK A01 T01981026  RH  022%=      5-min Rain = 0
KDC1 132259Z 11005KT 20/M02 A302 RMK A01 T01991024  RH  022%=      5-min Rain = 0
KDC1 132300Z 11005KT 20/M03 A302 RMK A01 T01991028  RH  022%=      5-min Rain = 0
KDC1 132301Z 11005KT 20/M04 A302 RMK A01 T01991035  RH  020%=      5-min Rain = 0
KDC1 132302Z 12004KT 20/M03 A302 RMK A01 T01991033  RH  021%=      5-min Rain = 0
KDC1 132303Z 11004KT 20/M03 A302 RMK A01 T01991032  RH  021%=      5-min Rain = 0
KDC1 132304Z 11004KT 20/M03 A302 RMK A01 T01991032  RH  021%=      5-min Rain = 0
KDC1 132305Z 11004KT 20/M03 A302 RMK A01 T01991034  RH  020%=      5-min Rain = 0
KDC1 132306Z 10004KT 20/M04 A302 RMK A01 T01991035  RH  020%=      5-min Rain = 0
KDC1 132307Z 09004KT 20/M04 A302 RMK A01 T01991035  RH  020%=      5-min Rain = 0
KDC1 132308Z 09005KT 20/M04 A302 RMK A01 T01981037  RH  020%=      5-min Rain = 0
KDC1 132309Z 10005KT 20/M04 A302 RMK A01 T01981036  RH  020%=      5-min Rain = 0
KDC1 132310Z 10004KT 20/M03 A302 RMK A01 T01981034  RH  021%=      5-min Rain = 0
KDC1 132311Z 10004KT 20/M04 A302 RMK A01 T01981036  RH  020%=      5-min Rain = 0
KDC1 132312Z 10005KT 20/M04 A302 RMK A01 T01981035  RH  020%=      5-min Rain = 0
KDC1 132313Z 10005KT 20/M04 A302 RMK A01 T01981035  RH  020%=      5-min Rain = 0
KDC1 132314Z 10005KT 20/M03 A302 RMK A01 T01981034  RH  021%=      5-min Rain = 0
KDC1 132315Z 10005KT 20/M04 A302 RMK A01 T01981035  RH  021%=      5-min Rain = 0
KDC1 132316Z 11004KT 20/M03 A302 RMK A01 T01981033  RH  021%=      5-min Rain = 0
KDC1 132317Z 11004KT 20/M03 A302 RMK A01 T01981031  RH  021%=      5-min Rain = 0
KDC1 132318Z 11004KT 20/M03 A302 RMK A01 T01971029  RH  022%=      5-min Rain = 0
KDC1 132319Z 11005KT 20/M03 A302 RMK A01 T01971027  RH  022%=      5-min Rain = 0
KDC1 132320Z 11004KT 20/M03 A302 RMK A01 T01971029  RH  022%=      5-min Rain = 0
KDC1 132321Z 11004KT 20/M03 A302 RMK A01 T01971030  RH  021%=      5-min Rain = 0
KDC1 132322Z 11003KT 20/M03 A302 RMK A01 T01971029  RH  022%=      5-min Rain = 0
KDC1 132323Z 12003KT 20/M03 A302 RMK A01 T01961027  RH  022%=      5-min Rain = 0
KDC1 132324Z 11003KT 20/M02 A302 RMK A01 T01961024  RH  023%=      5-min Rain = 0
KDC1 132325Z 11003KT 20/M02 A302 RMK A01 T01961023  RH  023%=      5-min Rain = 0
KDC1 132326Z 11004KT 20/M03 A302 RMK A01 T01951025  RH  022%=      5-min Rain = 0
KDC1 132327Z 11003KT 20/M02 A302 RMK A01 T01951024  RH  023%=      5-min Rain = 0
KDC1 132328Z 11004KT 20/M02 A302 RMK A01 T01951023  RH  023%=      5-min Rain = 0
KDC1 132329Z 12004KT 19/M02 A302 RMK A01 T01941023  RH  023%=      5-min Rain = 0
KDC1 132330Z 12003KT 19/M02 A302 RMK A01 T01941022  RH  023%=      5-min Rain = 0
KDC1 132331Z 12003KT 19/M02 A302 RMK A01 T01931021  RH  023%=      5-min Rain = 0
KDC1 132332Z 12003KT 19/M02 A302 RMK A01 T01931020  RH  024%=      5-min Rain = 0
KDC1 132333Z 12003KT 19/M02 A302 RMK A01 T01931019  RH  024%=      5-min Rain = 0
KDC1 132334Z 12003KT 19/M02 A302 RMK A01 T01921019  RH  024%=      5-min Rain = 0
KDC1 132335Z 12003KT 19/M02 A302 RMK A01 T01921018  RH  024%=      5-min Rain = 0
KDC1 132336Z 13002KT 19/M02 A302 RMK A01 T01911016  RH  025%=      5-min Rain = 0
KDC1 132337Z 13002KT 19/M01 A302 RMK A01 T01911014  RH  025%=      5-min Rain = 0
KDC1 132338Z 13002KT 19/M01 A3021 RMK A01 T01901009  RH  026%=      5-min Rain = 0
KDC1 132339Z 13002KT 19/M01 A3021 RMK A01 T01891005  RH  027%=      5-min Rain = 0
KDC1 132340Z 13002KT 19/M00 A3021 RMK A01 T01891003  RH  028%=      5-min Rain = 0
KDC1 132341Z 13002KT 19/M00 A3021 RMK A01 T01881003  RH  028%=      5-min Rain = 0
KDC1 132342Z 13002KT 19/M00 A3021 RMK A01 T01881004  RH  028%=      5-min Rain = 0
KDC1 132343Z 12003KT 19/M00 A3021 RMK A01 T01871003  RH  028%=      5-min Rain = 0
KDC1 132344Z 12003KT 19/M00 A3021 RMK A01 T01871001  RH  028%=      5-min Rain = 0
KDC1 132345Z 12003KT 19/00 A3021 RMK A01 T01860000  RH  029%=      5-min Rain = 0
KDC1 132346Z 13003KT 19/00 A3021 RMK A01 T01860001  RH  029%=      5-min Rain = 0
KDC1 132347Z 13003KT 19/00 A3021 RMK A01 T01850000  RH  029%=      5-min Rain = 0
KDC1 132348Z 13003KT 18/00 A3021 RMK A01 T01840002  RH  029%=      5-min Rain = 0
KDC1 132349Z 13004KT 18/00 A3021 RMK A01 T01840004  RH  030%=      5-min Rain = 0
KDC1 132350Z 13004KT 18/00 A3021 RMK A01 T01830004  RH  030%=      5-min Rain = 0
KDC1 132351Z 13003KT 18/00 A3021 RMK A01 T01820001  RH  029%=      5-min Rain = 0
KDC1 132352Z 13004KT 18/M00 A3021 RMK A01 T01811001  RH  029%=      5-min Rain = 0
KDC1 132353Z 13004KT 18/00 A3021 RMK A01 T018000-0  RH  030%=      5-min Rain = 0
KDC1 132354Z 13004KT 18/00 A3021 RMK A01 T01790001  RH  030%=      5-min Rain = 0
KDC1 132355Z 13004KT 18/00 A3021 RMK A01 T017800-0  RH  030%=      5-min Rain = 0
KDC1 132356Z 13004KT 18/M00 A3021 RMK A01 T01781002  RH  030%=      5-min Rain = 0
KDC1 132357Z 13005KT 18/M00 A3021 RMK A01 T01771003  RH  029%=      5-min Rain = 0
KDC1 132358Z 13005KT 18/M00 A3021 RMK A01 T01771004  RH  029%=      5-min Rain = 0
KDC1 132359Z 13005KT 18/M01 A3021 RMK A01 T01761005  RH  029%=      5-min Rain = 0
KDC1 140000Z 13005KT 18/M01 A3021 RMK A01 T01761005  RH  029%=      5-min Rain = 0
KDC1 140001Z 14005KT 18/M01 A3021 RMK A01 T01761005  RH  029%=      5-min Rain = 0
KDC1 140002Z 14005KT 18/M01 A3021 RMK A01 T01751007  RH  029%=      5-min Rain = 0
KDC1 140003Z 14005KT 18/M01 A3021 RMK A01 T01751014  RH  028%=      5-min Rain = 0
KDC1 140004Z 14004KT 18/M02 A3021 RMK A01 T01751019  RH  027%=      5-min Rain = 0
KDC1 140005Z 14004KT 18/M02 A3021 RMK A01 T01761021  RH  026%=      5-min Rain = 0
KDC1 140006Z 14004KT 18/M02 A3021 RMK A01 T01761023  RH  026%=      5-min Rain = 0
KDC1 140007Z 15005KT 18/M02 A3021 RMK A01 T01771024  RH  025%=      5-min Rain = 0
KDC1 140008Z 14005KT 18/M02 A3021 RMK A01 T01781024  RH  025%=      5-min Rain = 0
KDC1 140009Z 14005KT 18/M03 A3021 RMK A01 T01781025  RH  025%=      5-min Rain = 0
KDC1 140010Z 14005KT 18/M03 A3021 RMK A01 T01781027  RH  025%=      5-min Rain = 0
KDC1 140011Z 14005KT 18/M03 A3021 RMK A01 T01781029  RH  024%=      5-min Rain = 0
KDC1 140012Z 14005KT 18/M03 A3021 RMK A01 T01781028  RH  024%=      5-min Rain = 0
KDC1 140013Z 14004KT 18/M03 A3021 RMK A01 T01781029  RH  024%=      5-min Rain = 0
KDC1 140014Z 14005KT 18/M03 A3021 RMK A01 T01781028  RH  024%=      5-min Rain = 0
KDC1 140015Z 14004KT 18/M03 A3021 RMK A01 T01781029  RH  024%=      5-min Rain = 0
KDC1 140016Z 14004KT 18/M03 A3021 RMK A01 T01781029  RH  024%=      5-min Rain = 0
KDC1 140017Z 14004KT 18/M03 A3021 RMK A01 T01781027  RH  025%=      5-min Rain = 0
KDC1 140018Z 14004KT 18/M03 A3021 RMK A01 T01781027  RH  025%=      5-min Rain = 0
KDC1 140019Z 14004KT 18/M03 A3021 RMK A01 T01771028  RH  025%=      5-min Rain = 0
KDC1 140020Z 15004KT 18/M03 A3022 RMK A01 T01771028  RH  025%=      5-min Rain = 0
KDC1 140021Z 16004KT 18/M03 A3022 RMK A01 T01771027  RH  025%=      5-min Rain = 0
KDC1 140022Z 16003KT 18/M03 A3022 RMK A01 T01771026  RH  025%=      5-min Rain = 0
KDC1 140023Z 17003KT 18/M03 A3022 RMK A01 T01771027  RH  025%=      5-min Rain = 0
KDC1 140024Z 18002KT 18/M03 A3022 RMK A01 T01771028  RH  025%=      5-min Rain = 0
KDC1 140025Z 18002KT 18/M03 A3022 RMK A01 T01771028  RH  025%=      5-min Rain = 0
KDC1 140026Z 18002KT 18/M02 A3022 RMK A01 T01751022  RH  026%=      5-min Rain = 0
KDC1 140027Z 18002KT 17/M01 A3022 RMK A01 T01731014  RH  028%=      5-min Rain = 0
KDC1 140028Z 20002KT 17/M01 A3022 RMK A01 T01691010  RH  030%=      5-min Rain = 0
KDC1 140029Z 21002KT 17/M01 A3021 RMK A01 T01671008  RH  030%=      5-min Rain = 0
KDC1 140030Z 21002KT 17/M01 A3021 RMK A01 T01651008  RH  031%=      5-min Rain = 0
KDC1 140031Z 20002KT 17/M01 A3021 RMK A01 T01651012  RH  030%=      5-min Rain = 0
KDC1 140032Z 20002KT 17/M01 A3021 RMK A01 T01651011  RH  030%=      5-min Rain = 0
KDC1 140033Z 19003KT 17/M02 A3021 RMK A01 T01651015  RH  029%=      5-min Rain = 0
KDC1 140034Z 18003KT 17/M02 A3021 RMK A01 T01651018  RH  029%=      5-min Rain = 0
KDC1 140035Z 18003KT 17/M02 A3021 RMK A01 T01661023  RH  027%=      5-min Rain = 0
KDC1 140036Z 17003KT 17/M03 A3021 RMK A01 T01671028  RH  026%=      5-min Rain = 0
KDC1 140037Z 17003KT 17/M03 A3021 RMK A01 T01691033  RH  025%=      5-min Rain = 0
KDC1 140038Z 17003KT 17/M04 A3021 RMK A01 T01711035  RH  024%=      5-min Rain = 0
KDC1 140039Z 17003KT 17/M04 A3021 RMK A01 T01721036  RH  024%=      5-min Rain = 0
KDC1 140040Z 18003KT 17/M04 A3021 RMK A01 T01731036  RH  024%=      5-min Rain = 0
KDC1 140041Z 18003KT 17/M04 A3021 RMK A01 T01731035  RH  024%=      5-min Rain = 0
KDC1 140042Z 18003KT 17/M03 A3022 RMK A01 T01721034  RH  024%=      5-min Rain = 0
KDC1 140043Z 18003KT 17/M03 A3022 RMK A01 T01711030  RH  025%=      5-min Rain = 0
KDC1 140044Z 18003KT 17/M03 A3022 RMK A01 T01701029  RH  025%=      5-min Rain = 0
KDC1 140045Z 18003KT 17/M03 A3022 RMK A01 T01691026  RH  026%=      5-min Rain = 0
KDC1 140046Z 18003KT 17/M03 A3022 RMK A01 T01681027  RH  026%=      5-min Rain = 0
KDC1 140047Z 19004KT 17/M02 A3022 RMK A01 T01681024  RH  027%=      5-min Rain = 0
KDC1 140048Z 19003KT 17/M02 A3022 RMK A01 T01671024  RH  027%=      5-min Rain = 0
KDC1 140049Z 19003KT 17/M02 A3022 RMK A01 T01661024  RH  027%=      5-min Rain = 0
KDC1 140050Z 19004KT 17/M02 A3022 RMK A01 T01661022  RH  028%=      5-min Rain = 0
KDC1 140051Z 19004KT 17/M03 A3022 RMK A01 T01651025  RH  027%=      5-min Rain = 0
KDC1 140052Z 19003KT 17/M02 A3022 RMK A01 T01651024  RH  027%=      5-min Rain = 0
KDC1 140053Z 19004KT 17/M02 A3022 RMK A01 T01651021  RH  028%=      5-min Rain = 0
KDC1 140054Z 19003KT 16/M02 A3022 RMK A01 T01641018  RH  029%=      5-min Rain = 0
KDC1 140055Z 19004KT 16/M01 A3022 RMK A01 T01621010  RH  031%=      5-min Rain = 0
KDC1 140056Z 19003KT 16/M00 A3022 RMK A01 T01581004  RH  033%=      5-min Rain = 0
KDC1 140057Z 20004KT 16/M00 A3022 RMK A01 T01551003  RH  034%=      5-min Rain = 0
KDC1 140058Z 19004KT 15/M01 A3022 RMK A01 T01531008  RH  033%=      5-min Rain = 0
KDC1 140059Z 20004KT 15/M01 A3022 RMK A01 T01541014  RH  032%=      5-min Rain = 0
KDC1 140100Z 20004KT 15/M01 A3022 RMK A01 T01541011  RH  032%=      5-min Rain = 0
KDC1 140101Z 21002KT 15/M01 A3022 RMK A01 T01541010  RH  033%=      5-min Rain = 0
KDC1 140102Z 20003KT 15/M01 A3022 RMK A01 T01541012  RH  032%=      5-min Rain = 0
KDC1 140103Z 20003KT 16/M02 A3022 RMK A01 T01551017  RH  031%=      5-min Rain = 0
KDC1 140104Z 20003KT 16/M01 A3022 RMK A01 T01571014  RH  031%=      5-min Rain = 0
KDC1 140105Z 20003KT 16/M01 A3022 RMK A01 T01581007  RH  032%=      5-min Rain = 0
KDC1 140106Z 20004KT 16/M01 A3022 RMK A01 T01571011  RH  032%=      5-min Rain = 0
KDC1 140107Z 20004KT 16/M01 A3022 RMK A01 T01561010  RH  032%=      5-min Rain = 0
KDC1 140108Z 20004KT 16/M01 A3022 RMK A01 T01561013  RH  031%=      5-min Rain = 0
KDC1 140109Z 19004KT 16/M01 A3022 RMK A01 T01561012  RH  032%=      5-min Rain = 0
KDC1 140110Z 19004KT 16/M01 A3022 RMK A01 T01551014  RH  031%=      5-min Rain = 0
KDC1 140111Z 20004KT 16/M01 A3022 RMK A01 T01551013  RH  032%=      5-min Rain = 0
KDC1 140112Z 20004KT 15/M01 A3022 RMK A01 T01531012  RH  032%=      5-min Rain = 0
KDC1 140113Z 20004KT 15/M01 A3022 RMK A01 T01521010  RH  033%=      5-min Rain = 0
KDC1 140114Z 19004KT 15/M01 A3022 RMK A01 T01491009  RH  034%=      5-min Rain = 0
KDC1 140115Z 20004KT 15/M01 A3022 RMK A01 T01481008  RH  034%=      5-min Rain = 0
KDC1 140116Z 20003KT 15/M01 A3023 RMK A01 T01471007  RH  035%=      5-min Rain = 0
KDC1 140117Z 20003KT 15/M01 A3023 RMK A01 T01451010  RH  034%=      5-min Rain = 0
KDC1 140118Z 20003KT 15/M01 A3023 RMK A01 T01461011  RH  034%=      5-min Rain = 0
KDC1 140119Z 21004KT 15/M01 A3023 RMK A01 T01471012  RH  034%=      5-min Rain = 0
KDC1 140120Z 21004KT 15/M01 A3023 RMK A01 T01481012  RH  033%=      5-min Rain = 0
KDC1 140121Z 20004KT 15/M01 A3023 RMK A01 T01491014  RH  032%=      5-min Rain = 0
KDC1 140122Z 20003KT 15/M02 A3023 RMK A01 T01511015  RH  032%=      5-min Rain = 0
KDC1 140123Z 20003KT 15/M01 A3023 RMK A01 T01511014  RH  032%=      5-min Rain = 0
KDC1 140124Z 19003KT 15/M02 A3023 RMK A01 T01491018  RH  032%=      5-min Rain = 0
KDC1 140125Z 20003KT 15/M02 A3023 RMK A01 T01481019  RH  032%=      5-min Rain = 0
KDC1 140126Z 19004KT 15/M02 A3023 RMK A01 T01471017  RH  032%=      5-min Rain = 0
KDC1 140127Z 20004KT 15/M02 A3023 RMK A01 T01461017  RH  033%=      5-min Rain = 0
KDC1 140128Z 20003KT 15/M02 A3023 RMK A01 T01451018  RH  032%=      5-min Rain = 0
KDC1 140129Z 20004KT 14/M02 A3023 RMK A01 T01441020  RH  032%=      5-min Rain = 0
KDC1 140130Z 20004KT 14/M02 A3023 RMK A01 T01431019  RH  033%=      5-min Rain = 0
KDC1 140131Z 20003KT 14/M02 A3023 RMK A01 T01431019  RH  033%=      5-min Rain = 0
KDC1 140132Z 21002KT 14/M02 A3023 RMK A01 T01421023  RH  032%=      5-min Rain = 0
KDC1 140133Z 20003KT 14/M03 A3023 RMK A01 T01441027  RH  031%=      5-min Rain = 0
KDC1 140134Z 20003KT 15/M03 A3023 RMK A01 T01471030  RH  029%=      5-min Rain = 0
KDC1 140135Z 21003KT 15/M03 A3023 RMK A01 T01491028  RH  029%=      5-min Rain = 0
KDC1 140136Z 20003KT 15/M03 A3023 RMK A01 T01481025  RH  030%=      5-min Rain = 0
KDC1 140137Z 20003KT 15/M03 A3023 RMK A01 T01461028  RH  030%=      5-min Rain = 0
KDC1 140138Z 20003KT 15/M03 A3023 RMK A01 T01451028  RH  030%=      5-min Rain = 0
KDC1 140139Z 21003KT 15/M03 A3023 RMK A01 T01461032  RH  029%=      5-min Rain = 0
KDC1 140140Z 23004KT 15/M03 A3023 RMK A01 T01471030  RH  029%=      5-min Rain = 0
KDC1 140141Z 22004KT 15/M02 A3023 RMK A01 T01451024  RH  031%=      5-min Rain = 0
KDC1 140142Z 21004KT 14/M03 A3023 RMK A01 T01411026  RH  031%=      5-min Rain = 0
KDC1 140143Z 22004KT 14/M02 A3023 RMK A01 T01391024  RH  032%=      5-min Rain = 0
KDC1 140144Z 22005KT 14/M03 A3023 RMK A01 T01371028  RH  032%=      5-min Rain = 0
KDC1 140145Z 22004KT 14/M03 A3023 RMK A01 T01371026  RH  032%=      5-min Rain = 0
KDC1 140146Z 22004KT 14/M03 A3023 RMK A01 T01381026  RH  032%=      5-min Rain = 0
KDC1 140147Z 21004KT 14/M03 A3023 RMK A01 T01381026  RH  032%=      5-min Rain = 0
KDC1 140148Z 21004KT 14/M03 A3023 RMK A01 T01391025  RH  032%=      5-min Rain = 0
KDC1 140149Z 22004KT 14/M02 A3023 RMK A01 T01381024  RH  033%=      5-min Rain = 0
KDC1 140150Z 22005KT 14/M03 A3023 RMK A01 T01371027  RH  032%=      5-min Rain = 0
KDC1 140151Z 22005KT 14/M03 A3024 RMK A01 T01371025  RH  033%=      5-min Rain = 0
KDC1 140152Z 22005KT 14/M02 A3024 RMK A01 T01361022  RH  033%=      5-min Rain = 0
KDC1 140153Z 23005KT 13/M02 A3024 RMK A01 T01341024  RH  033%=      5-min Rain = 0
KDC1 140154Z 23005KT 13/M02 A3024 RMK A01 T01311021  RH  035%=      5-min Rain = 0
KDC1 140155Z 23004KT 13/M02 A3024 RMK A01 T01281018  RH  036%=      5-min Rain = 0
KDC1 140156Z 23005KT 12/M02 A3024 RMK A01 T01241015  RH  038%=      5-min Rain = 0
KDC1 140157Z 23005KT 12/M02 A3024 RMK A01 T01221015  RH  039%=      5-min Rain = 0
KDC1 140158Z 23005KT 12/M02 A3024 RMK A01 T01211016  RH  039%=      5-min Rain = 0
KDC1 140159Z 23005KT 12/M02 A3024 RMK A01 T01201015  RH  039%=      5-min Rain = 0
KDC1 140200Z 24006KT 12/M02 A3024 RMK A01 T01201017  RH  039%=      5-min Rain = 0
KDC1 140201Z 24007KT 12/M02 A3024 RMK A01 T01201017  RH  039%=      5-min Rain = 0
KDC1 140202Z 24006KT 12/M02 A3024 RMK A01 T01201019  RH  038%=      5-min Rain = 0
KDC1 140203Z 23005KT 12/M02 A3024 RMK A01 T01201018  RH  038%=      5-min Rain = 0
KDC1 140204Z 23005KT 12/M02 A3024 RMK A01 T01201022  RH  037%=      5-min Rain = 0
KDC1 140205Z 23005KT 12/M02 A3023 RMK A01 T01201021  RH  037%=      5-min Rain = 0
KDC1 140206Z 23005KT 12/M02 A3024 RMK A01 T01201023  RH  037%=      5-min Rain = 0
KDC1 140207Z 23005KT 12/M02 A3024 RMK A01 T01191024  RH  037%=      5-min Rain = 0
KDC1 140208Z 23005KT 12/M02 A3024 RMK A01 T01201023  RH  037%=      5-min Rain = 0
KDC1 140209Z 23004KT 12/M02 A3024 RMK A01 T01201021  RH  038%=      5-min Rain = 0
KDC1 140210Z 23005KT 12/M02 A3024 RMK A01 T01191021  RH  038%=      5-min Rain = 0
KDC1 140211Z 23005KT 12/M02 A3024 RMK A01 T01171021  RH  038%=      5-min Rain = 0
KDC1 140212Z 23005KT 12/M02 A3024 RMK A01 T01171022  RH  038%=      5-min Rain = 0
KDC1 140213Z 23005KT 12/M02 A3023 RMK A01 T01171022  RH  038%=      5-min Rain = 0
KDC1 140214Z 23005KT 12/M02 A3023 RMK A01 T01161022  RH  038%=      5-min Rain = 0
KDC1 140215Z 23006KT 12/M02 A3023 RMK A01 T01161022  RH  038%=      5-min Rain = 0
KDC1 140216Z 23006KT 12/M02 A3023 RMK A01 T01161023  RH  038%=      5-min Rain = 0
KDC1 140217Z 23005KT 12/M02 A3024 RMK A01 T01171024  RH  037%=      5-min Rain = 0
KDC1 140218Z 23005KT 12/M02 A3024 RMK A01 T01181024  RH  037%=      5-min Rain = 0
KDC1 140219Z 23005KT 12/M02 A3024 RMK A01 T01181023  RH  037%=      5-min Rain = 0
KDC1 140220Z 23005KT 12/M02 A3024 RMK A01 T01171021  RH  038%=      5-min Rain = 0
KDC1 140221Z 24006KT 12/M02 A3024 RMK A01 T01161022  RH  038%=      5-min Rain = 0
KDC1 140222Z 24006KT 12/M02 A3024 RMK A01 T01171020  RH  038%=      5-min Rain = 0
KDC1 140223Z 25006KT 12/M02 A3024 RMK A01 T01151016  RH  040%=      5-min Rain = 0
KDC1 140224Z 25006KT 11/M02 A3024 RMK A01 T01121015  RH  041%=      5-min Rain = 0
KDC1 140225Z 26006KT 11/M02 A3024 RMK A01 T01111015  RH  042%=      5-min Rain = 0
KDC1 140226Z 26005KT 11/M01 A3024 RMK A01 T01081014  RH  042%=      5-min Rain = 0
KDC1 140227Z 26005KT 10/M01 A3024 RMK A01 T01041008  RH  046%=      5-min Rain = 0
KDC1 140228Z 27004KT 10/M01 A3024 RMK A01 T01001006  RH  048%=      5-min Rain = 0
KDC1 140229Z 26004KT 10/M01 A3024 RMK A01 T00961005  RH  050%=      5-min Rain = 0
KDC1 140230Z 27004KT 09/M00 A3024 RMK A01 T00901001  RH  053%=      5-min Rain = 0
KDC1 140231Z 27005KT 09/00 A3024 RMK A01 T008500-0  RH  055%=      5-min Rain = 0
KDC1 140232Z 27005KT 08/M00 A3024 RMK A01 T00821003  RH  055%=      5-min Rain = 0
KDC1 140233Z 26006KT 08/M00 A3024 RMK A01 T00801004  RH  056%=      5-min Rain = 0
KDC1 140234Z 26006KT 08/M01 A3024 RMK A01 T00791006  RH  055%=      5-min Rain = 0
KDC1 140235Z 26007KT 08/M01 A3024 RMK A01 T00811009  RH  053%=      5-min Rain = 0
KDC1 140236Z 26007KT 08/M01 A3024 RMK A01 T00841011  RH  051%=      5-min Rain = 0
KDC1 140237Z 26007KT 09/M01 A3025 RMK A01 T00881014  RH  049%=      5-min Rain = 0
KDC1 140238Z 25007KT 09/M02 A3025 RMK A01 T00921016  RH  047%=      5-min Rain = 0
KDC1 140239Z 25007KT 10/M02 A3025 RMK A01 T00961019  RH  044%=      5-min Rain = 0
KDC1 140240Z 25007KT 10/M02 A3025 RMK A01 T00991020  RH  043%=      5-min Rain = 0
KDC1 140241Z 25007KT 10/M02 A3025 RMK A01 T01001019  RH  043%=      5-min Rain = 0
KDC1 140242Z 26006KT 10/M02 A3025 RMK A01 T00991019  RH  044%=      5-min Rain = 0
KDC1 140243Z 25006KT 10/M02 A3025 RMK A01 T00991019  RH  044%=      5-min Rain = 0
KDC1 140244Z 26006KT 10/M02 A3025 RMK A01 T00981018  RH  044%=      5-min Rain = 0
KDC1 140245Z 25006KT 10/M02 A3025 RMK A01 T00981017  RH  045%=      5-min Rain = 0
KDC1 140246Z 25006KT 10/M02 A3025 RMK A01 T00971017  RH  045%=      5-min Rain = 0
KDC1 140247Z 24006KT 10/M02 A3025 RMK A01 T00961018  RH  045%=      5-min Rain = 0
KDC1 140248Z 24006KT 10/M02 A3025 RMK A01 T00961019  RH  044%=      5-min Rain = 0
KDC1 140249Z 24007KT 10/M02 A3025 RMK A01 T00971019  RH  044%=      5-min Rain = 0
KDC1 140250Z 24007KT 10/M02 A3025 RMK A01 T00981018  RH  044%=      5-min Rain = 0
KDC1 140251Z 24006KT 10/M02 A3025 RMK A01 T00981017  RH  045%=      5-min Rain = 0
KDC1 140252Z 24007KT 10/M02 A3025 RMK A01 T00971019  RH  044%=      5-min Rain = 0
KDC1 140253Z 23006KT 10/M02 A3025 RMK A01 T00971017  RH  045%=      5-min Rain = 0
KDC1 140254Z 23006KT 10/M02 A3025 RMK A01 T00961018  RH  045%=      5-min Rain = 0
KDC1 140255Z 23006KT 10/M02 A3025 RMK A01 T00961015  RH  046%=      5-min Rain = 0
KDC1 140256Z 22005KT 09/M02 A3025 RMK A01 T00941016  RH  046%=      5-min Rain = 0
KDC1 140257Z 23005KT 09/M02 A3025 RMK A01 T00941019  RH  045%=      5-min Rain = 0
KDC1 140258Z 23006KT 10/M02 A3025 RMK A01 T00951024  RH  043%=      5-min Rain = 0
KDC1 140259Z 23006KT 10/M03 A3025 RMK A01 T00971028  RH  041%=      5-min Rain = 0
KDC1 140300Z 23005KT 10/M03 A3025 RMK A01 T00991030  RH  040%=      5-min Rain = 0
KDC1 140301Z 23005KT 10/M03 A3025 RMK A01 T01001032  RH  039%=      5-min Rain = 0
KDC1 140302Z 23007KT 10/M03 A3025 RMK A01 T01001032  RH  039%=      5-min Rain = 0
KDC1 140303Z 23006KT 10/M03 A3025 RMK A01 T01021032  RH  039%=      5-min Rain = 0
KDC1 140304Z 23006KT 10/M03 A3025 RMK A01 T01021031  RH  039%=      5-min Rain = 0
KDC1 140305Z 23006KT 10/M03 A3025 RMK A01 T01011031  RH  039%=      5-min Rain = 0
KDC1 140306Z 23005KT 10/M03 A3025 RMK A01 T01001031  RH  040%=      5-min Rain = 0
KDC1 140307Z 23005KT 10/M03 A3025 RMK A01 T01001031  RH  040%=      5-min Rain = 0
KDC1 140308Z 23006KT 10/M03 A3025 RMK A01 T01001030  RH  040%=      5-min Rain = 0
KDC1 140309Z 24007KT 10/M03 A3025 RMK A01 T00991031  RH  040%=      5-min Rain = 0
KDC1 140310Z 23006KT 10/M03 A3025 RMK A01 T01001030  RH  040%=      5-min Rain = 0
KDC1 140311Z 23006KT 10/M03 A3025 RMK A01 T01001029  RH  040%=      5-min Rain = 0
KDC1 140312Z 23005KT 10/M03 A3025 RMK A01 T00981028  RH  041%=      5-min Rain = 0
KDC1 140313Z 23005KT 10/M03 A3025 RMK A01 T00971027  RH  042%=      5-min Rain = 0
KDC1 140314Z 23006KT 10/M03 A3025 RMK A01 T00961027  RH  042%=      5-min Rain = 0
KDC1 140315Z 23006KT 10/M03 A3025 RMK A01 T00981026  RH  042%=      5-min Rain = 0
KDC1 140316Z 24006KT 10/M03 A3025 RMK A01 T01021025  RH  041%=      5-min Rain = 0
KDC1 140317Z 24007KT 10/M02 A3025 RMK A01 T01021023  RH  041%=      5-min Rain = 0
KDC1 140318Z 24007KT 10/M02 A3025 RMK A01 T01021022  RH  042%=      5-min Rain = 0
KDC1 140319Z 24007KT 10/M02 A3025 RMK A01 T01011021  RH  042%=      5-min Rain = 0
KDC1 140320Z 25006KT 10/M02 A3025 RMK A01 T01011021  RH  043%=      5-min Rain = 0
KDC1 140321Z 24007KT 10/M02 A3025 RMK A01 T01001020  RH  043%=      5-min Rain = 0
KDC1 140322Z 24007KT 10/M02 A3025 RMK A01 T00991018  RH  044%=      5-min Rain = 0
KDC1 140323Z 25006KT 10/M02 A3025 RMK A01 T00981016  RH  045%=      5-min Rain = 0
KDC1 140324Z 24006KT 10/M02 A3025 RMK A01 T00951015  RH  046%=      5-min Rain = 0
KDC1 140325Z 25005KT 09/M02 A3025 RMK A01 T00931017  RH  046%=      5-min Rain = 0
KDC1 140326Z 25004KT 09/M02 A3025 RMK A01 T00901018  RH  047%=      5-min Rain = 0
KDC1 140327Z 24005KT 09/M02 A3026 RMK A01 T00861015  RH  049%=      5-min Rain = 0
KDC1 140328Z 24005KT 08/M01 A3026 RMK A01 T00811014  RH  051%=      5-min Rain = 0
KDC1 140329Z 24006KT 08/M01 A3026 RMK A01 T00781012  RH  053%=      5-min Rain = 0
KDC1 140330Z 24006KT 08/M01 A3026 RMK A01 T00781011  RH  053%=      5-min Rain = 0
KDC1 140331Z 23005KT 08/M01 A3025 RMK A01 T00791012  RH  053%=      5-min Rain = 0
KDC1 140332Z 22005KT 08/M01 A3025 RMK A01 T00821013  RH  051%=      5-min Rain = 0
KDC1 140333Z 23006KT 09/M02 A3026 RMK A01 T00861015  RH  049%=      5-min Rain = 0
KDC1 140334Z 21006KT 09/M02 A3026 RMK A01 T00901019  RH  046%=      5-min Rain = 0
KDC1 140335Z 20005KT 10/M02 A3026 RMK A01 T00951021  RH  044%=      5-min Rain = 0
KDC1 140336Z 19006KT 10/M03 A3026 RMK A01 T00991025  RH  042%=      5-min Rain = 0
KDC1 140337Z 20006KT 10/M03 A3026 RMK A01 T01021029  RH  040%=      5-min Rain = 0
KDC1 140338Z 20006KT 11/M03 A3026 RMK A01 T01061034  RH  037%=      5-min Rain = 0
KDC1 140339Z 20005KT 11/M04 A3026 RMK A01 T01111036  RH  035%=      5-min Rain = 0
KDC1 140340Z 20005KT 12/M04 A3026 RMK A01 T01151038  RH  034%=      5-min Rain = 0
KDC1 140341Z 20005KT 12/M04 A3026 RMK A01 T01171039  RH  033%=      5-min Rain = 0
KDC1 140342Z 20004KT 12/M04 A3026 RMK A01 T01181039  RH  033%=      5-min Rain = 0
KDC1 140343Z 21005KT 12/M04 A3026 RMK A01 T01181040  RH  033%=      5-min Rain = 0
KDC1 140344Z 21006KT 12/M04 A3026 RMK A01 T01181040  RH  033%=      5-min Rain = 0
KDC1 140345Z 21006KT 12/M04 A3026 RMK A01 T01181040  RH  033%=      5-min Rain = 0
KDC1 140346Z 21006KT 12/M04 A3026 RMK A01 T01161040  RH  033%=      5-min Rain = 0
KDC1 140347Z 22006KT 11/M04 A3026 RMK A01 T01131040  RH  034%=      5-min Rain = 0
KDC1 140348Z 21006KT 11/M04 A3026 RMK A01 T01101040  RH  035%=      5-min Rain = 0
KDC1 140349Z 21006KT 11/M04 A3026 RMK A01 T01071039  RH  036%=      5-min Rain = 0
KDC1 140350Z 20005KT 11/M04 A3026 RMK A01 T01051039  RH  036%=      5-min Rain = 0
KDC1 140351Z 21005KT 11/M04 A3026 RMK A01 T01051039  RH  036%=      5-min Rain = 0
KDC1 140352Z 21005KT 10/M04 A3026 RMK A01 T01041039  RH  036%=      5-min Rain = 0
KDC1 140353Z 21006KT 10/M04 A3026 RMK A01 T01021038  RH  037%=      5-min Rain = 0
KDC1 140354Z 21005KT 10/M04 A3026 RMK A01 T01021037  RH  038%=      5-min Rain = 0
KDC1 140355Z 21006KT 10/M04 A3026 RMK A01 T01001036  RH  038%=      5-min Rain = 0
KDC1 140356Z 21005KT 10/M04 A3026 RMK A01 T00991036  RH  039%=      5-min Rain = 0
KDC1 140357Z 20003KT 10/M04 A3026 RMK A01 T00991037  RH  038%=      5-min Rain = 0
KDC1 140358Z 21004KT 10/M04 A3026 RMK A01 T01001036  RH  038%=      5-min Rain = 0
KDC1 140359Z 21005KT 10/M04 A3026 RMK A01 T01021036  RH  038%=      5-min Rain = 0
KDC1 140400Z 21005KT 10/M03 A3026 RMK A01 T01021034  RH  038%=      5-min Rain = 0
KDC1 140401Z 21005KT 10/M03 A3026 RMK A01 T01021034  RH  038%=      5-min Rain = 0
KDC1 140402Z 21005KT 10/M04 A3026 RMK A01 T01021035  RH  038%=      5-min Rain = 0
KDC1 140403Z 21006KT 10/M04 A3026 RMK A01 T01031035  RH  038%=      5-min Rain = 0
KDC1 140404Z 22006KT 10/M04 A3026 RMK A01 T01041035  RH  037%=      5-min Rain = 0
KDC1 140405Z 22006KT 10/M04 A3026 RMK A01 T01041035  RH  037%=      5-min Rain = 0
KDC1 140406Z 22005KT 10/M04 A3026 RMK A01 T01031035  RH  038%=      5-min Rain = 0
KDC1 140407Z 22005KT 10/M04 A3026 RMK A01 T01041035  RH  037%=      5-min Rain = 0
KDC1 140408Z 22004KT 10/M04 A3026 RMK A01 T01041035  RH  037%=      5-min Rain = 0
KDC1 140409Z 22004KT 10/M04 A3026 RMK A01 T01031036  RH  037%=      5-min Rain = 0
KDC1 140410Z 23005KT 10/M04 A3026 RMK A01 T01021037  RH  038%=      5-min Rain = 0
KDC1 140411Z 23005KT 10/M04 A3026 RMK A01 T01011038  RH  038%=      5-min Rain = 0
KDC1 140412Z 23006KT 10/M04 A3026 RMK A01 T01001038  RH  038%=      5-min Rain = 0
KDC1 140413Z 23006KT 10/M04 A3026 RMK A01 T00991037  RH  038%=      5-min Rain = 0
KDC1 140414Z 23005KT 10/M04 A3026 RMK A01 T00981036  RH  039%=      5-min Rain = 0
KDC1 140415Z 23005KT 10/M04 A3026 RMK A01 T00961035  RH  040%=      5-min Rain = 0
KDC1 140416Z 23005KT 09/M03 A3026 RMK A01 T00941033  RH  041%=      5-min Rain = 0
KDC1 140417Z 23005KT 09/M03 A3026 RMK A01 T00931031  RH  042%=      5-min Rain = 0
KDC1 140418Z 23005KT 09/M03 A3026 RMK A01 T00931030  RH  042%=      5-min Rain = 0
KDC1 140419Z 23004KT 09/M03 A3026 RMK A01 T00941029  RH  042%=      5-min Rain = 0
KDC1 140420Z 22004KT 10/M03 A3027 RMK A01 T00961028  RH  042%=      5-min Rain = 0
KDC1 140421Z 23004KT 10/M03 A3027 RMK A01 T00971026  RH  042%=      5-min Rain = 0
KDC1 140422Z 23004KT 10/M03 A3027 RMK A01 T00971025  RH  042%=      5-min Rain = 0
KDC1 140423Z 23004KT 10/M02 A3027 RMK A01 T00961024  RH  043%=      5-min Rain = 0
KDC1 140424Z 24004KT 09/M02 A3027 RMK A01 T00921020  RH  045%=      5-min Rain = 0
KDC1 140425Z 26003KT 09/M02 A3027 RMK A01 T00891017  RH  047%=      5-min Rain = 0
KDC1 140426Z 26004KT 09/M02 A3027 RMK A01 T00881016  RH  048%=      5-min Rain = 0
KDC1 140427Z 26003KT 09/M01 A3027 RMK A01 T00871014  RH  049%=      5-min Rain = 0
KDC1 140428Z 25004KT 09/M01 A3027 RMK A01 T00861014  RH  049%=      5-min Rain = 0
KDC1 140429Z 24004KT 09/M01 A3027 RMK A01 T00851014  RH  050%=      5-min Rain = 0
KDC1 140430Z 23003KT 09/M02 A3027 RMK A01 T00851015  RH  050%=      5-min Rain = 0
KDC1 140431Z 23004KT 09/M01 A3027 RMK A01 T00851014  RH  050%=      5-min Rain = 0
KDC1 140432Z 23004KT 09/M02 A3027 RMK A01 T00851015  RH  049%=      5-min Rain = 0
KDC1 140433Z 22004KT 09/M02 A3027 RMK A01 T00861018  RH  048%=      5-min Rain = 0
KDC1 140434Z 22003KT 09/M02 A3027 RMK A01 T00881021  RH  046%=      5-min Rain = 0
KDC1 140435Z 22003KT 09/M02 A3027 RMK A01 T00921024  RH  044%=      5-min Rain = 0
KDC1 140436Z 21003KT 09/M02 A3027 RMK A01 T00941024  RH  043%=      5-min Rain = 0
KDC1 140437Z 22003KT 10/M03 A3027 RMK A01 T00961027  RH  042%=      5-min Rain = 0
KDC1 140438Z 23003KT 10/M03 A3027 RMK A01 T00991028  RH  041%=      5-min Rain = 0
KDC1 140439Z 22003KT 10/M03 A3026 RMK A01 T01011027  RH  040%=      5-min Rain = 0
KDC1 140440Z 23002KT 10/M02 A3026 RMK A01 T01001023  RH  042%=      5-min Rain = 0
KDC1 140441Z 24002KT 10/M02 A3026 RMK A01 T00961023  RH  043%=      5-min Rain = 0
KDC1 140442Z 25003KT 09/M02 A3026 RMK A01 T00941022  RH  044%=      5-min Rain = 0
KDC1 140443Z 25003KT 09/M02 A3026 RMK A01 T00921019  RH  046%=      5-min Rain = 0
KDC1 140444Z 26003KT 09/M02 A3026 RMK A01 T00901018  RH  047%=      5-min Rain = 0
KDC1 140445Z 26003KT 09/M02 A3026 RMK A01 T00881019  RH  047%=      5-min Rain = 0
KDC1 140446Z 26003KT 09/M02 A3026 RMK A01 T00871019  RH  047%=      5-min Rain = 0
KDC1 140447Z 26003KT 09/M02 A3026 RMK A01 T00871019  RH  048%=      5-min Rain = 0
KDC1 140448Z 27003KT 09/M02 A3026 RMK A01 T00871018  RH  048%=      5-min Rain = 0
KDC1 140449Z 27003KT 09/M02 A3026 RMK A01 T00871017  RH  048%=      5-min Rain = 0
KDC1 140450Z 27004KT 09/M02 A3026 RMK A01 T00861016  RH  049%=      5-min Rain = 0
KDC1 140451Z 27004KT 09/M02 A3026 RMK A01 T00851015  RH  049%=      5-min Rain = 0
KDC1 140452Z 27004KT 08/M02 A3026 RMK A01 T00841015  RH  050%=      5-min Rain = 0
KDC1 140453Z 28004KT 08/M02 A3026 RMK A01 T00831016  RH  050%=      5-min Rain = 0
KDC1 140454Z 28005KT 08/M02 A3026 RMK A01 T00821017  RH  049%=      5-min Rain = 0
KDC1 140455Z 28004KT 08/M02 A3026 RMK A01 T00821018  RH  049%=      5-min Rain = 0
KDC1 140456Z 28004KT 08/M02 A3026 RMK A01 T00821019  RH  049%=      5-min Rain = 0
KDC1 140457Z 28004KT 08/M02 A3026 RMK A01 T00821016  RH  050%=      5-min Rain = 0
KDC1 140458Z 28004KT 08/M01 A3026 RMK A01 T00821014  RH  051%=      5-min Rain = 0
KDC1 140459Z 29005KT 08/M01 A3026 RMK A01 T00811014  RH  051%=      5-min Rain = 0
KDC1 140500Z 29005KT 08/M02 A3026 RMK A01 T00811015  RH  051%=      5-min Rain = 0
KDC1 140501Z 29005KT 08/M01 A3026 RMK A01 T00811014  RH  051%=      5-min Rain = 0
KDC1 140502Z 30005KT 08/M01 A3026 RMK A01 T00811012  RH  052%=      5-min Rain = 0
KDC1 140503Z 30005KT 08/M01 A3026 RMK A01 T00811011  RH  052%=      5-min Rain = 0
KDC1 140504Z 32005KT 08/M01 A3026 RMK A01 T00801009  RH  053%=      5-min Rain = 0
KDC1 140505Z 33005KT 08/M01 A3026 RMK A01 T00801007  RH  054%=      5-min Rain = 0
KDC1 140506Z 34005KT 08/M01 A3026 RMK A01 T00791007  RH  054%=      5-min Rain = 0
KDC1 140507Z 01005KT 08/M02 A3026 RMK A01 T00801015  RH  051%=      5-min Rain = 0
KDC1 140508Z 03005KT 08/M02 A3026 RMK A01 T00811019  RH  049%=      5-min Rain = 0
KDC1 140509Z 03006KT 08/M02 A3026 RMK A01 T00811020  RH  049%=      5-min Rain = 0
KDC1 140510Z 03006KT 08/M02 A3026 RMK A01 T00801022  RH  049%=      5-min Rain = 0
KDC1 140511Z 03005KT 08/M02 A3026 RMK A01 T00791024  RH  048%=      5-min Rain = 0
KDC1 140512Z 03005KT 08/M03 A3026 RMK A01 T00791027  RH  047%=      5-min Rain = 0
KDC1 140513Z 03005KT 08/M03 A3027 RMK A01 T00791029  RH  046%=      5-min Rain = 0
KDC1 140514Z 04004KT 08/M03 A3027 RMK A01 T00781031  RH  046%=      5-min Rain = 0
KDC1 140515Z 05003KT 08/M03 A3027 RMK A01 T00781032  RH  046%=      5-min Rain = 0
KDC1 140516Z 05004KT 08/M03 A3027 RMK A01 T00781033  RH  045%=      5-min Rain = 0
KDC1 140517Z 05004KT 08/M03 A3027 RMK A01 T00781034  RH  045%=      5-min Rain = 0
KDC1 140518Z 08001KT 08/M04 A3027 RMK A01 T00781035  RH  045%=      5-min Rain = 0
KDC1 140519Z 06003KT 08/M03 A3027 RMK A01 T00781034  RH  045%=      5-min Rain = 0
KDC1 140520Z 07002KT 08/M04 A3027 RMK A01 T00781035  RH  045%=      5-min Rain = 0
KDC1 140521Z 07001KT 08/M04 A3027 RMK A01 T00791036  RH  044%=      5-min Rain = 0
KDC1 140522Z 06000KT 08/M04 A3027 RMK A01 T00811035  RH  044%=      5-min Rain = 0
KDC1 140523Z 08001KT 08/M04 A3027 RMK A01 T00821035  RH  044%=      5-min Rain = 0
KDC1 140524Z 07001KT 08/M03 A3027 RMK A01 T00831033  RH  044%=      5-min Rain = 0
KDC1 140525Z 08000KT 08/M03 A3027 RMK A01 T00831033  RH  044%=      5-min Rain = 0
KDC1 140526Z 13000KT 08/M03 A3027 RMK A01 T00831032  RH  044%=      5-min Rain = 0
KDC1 140527Z 14001KT 08/M03 A3027 RMK A01 T00831033  RH  044%=      5-min Rain = 0
KDC1 140528Z 12001KT 08/M03 A3027 RMK A01 T00841033  RH  044%=      5-min Rain = 0
KDC1 140529Z 11001KT 08/M03 A3027 RMK A01 T00841034  RH  043%=      5-min Rain = 0
KDC1 140530Z 10001KT 08/M03 A3027 RMK A01 T00841034  RH  043%=      5-min Rain = 0
KDC1 140531Z 12001KT 08/M04 A3027 RMK A01 T00841035  RH  043%=      5-min Rain = 0
KDC1 140532Z 16002KT 09/M04 A3027 RMK A01 T00851035  RH  043%=      5-min Rain = 0
KDC1 140533Z 15002KT 09/M03 A3027 RMK A01 T00851034  RH  043%=      5-min Rain = 0
KDC1 140534Z 14002KT 09/M04 A3027 RMK A01 T00851035  RH  043%=      5-min Rain = 0
KDC1 140535Z 14002KT 09/M04 A3027 RMK A01 T00871035  RH  042%=      5-min Rain = 0
KDC1 140536Z 14002KT 09/M04 A3027 RMK A01 T00881035  RH  042%=      5-min Rain = 0
KDC1 140537Z 14002KT 09/M04 A3027 RMK A01 T00881035  RH  042%=      5-min Rain = 0
KDC1 140538Z 14002KT 09/M04 A3027 RMK A01 T00881035  RH  042%=      5-min Rain = 0
KDC1 140539Z 14002KT 09/M04 A3027 RMK A01 T00881035  RH  042%=      5-min Rain = 0
KDC1 140540Z 14002KT 09/M03 A3027 RMK A01 T00881034  RH  042%=      5-min Rain = 0
KDC1 140541Z 15001KT 09/M03 A3027 RMK A01 T00871034  RH  042%=      5-min Rain = 0
KDC1 140542Z 18000KT 09/M04 A3027 RMK A01 T00861035  RH  042%=      5-min Rain = 0
KDC1 140543Z 00000KT 08/M03 A3027 RMK A01 T00841031  RH  044%=      5-min Rain = 0
KDC1 140544Z 00000KT 08/M02 A3027 RMK A01 T00821021  RH  048%=      5-min Rain = 0
KDC1 140545Z 32001KT 08/M02 A3027 RMK A01 T00801015  RH  051%=      5-min Rain = 0
KDC1 140546Z 28002KT 08/M01 A3027 RMK A01 T00771006  RH  056%=      5-min Rain = 0
KDC1 140547Z 29003KT 07/00 A3027 RMK A01 T00730002  RH  061%=      5-min Rain = 0
KDC1 140548Z 30004KT 07/00 A3027 RMK A01 T00690002  RH  062%=      5-min Rain = 0
KDC1 140549Z 28003KT 07/M00 A3027 RMK A01 T00681001  RH  061%=      5-min Rain = 0
KDC1 140550Z 27002KT 07/M01 A3027 RMK A01 T00691005  RH  059%=      5-min Rain = 0
KDC1 140551Z 27002KT 07/M01 A3028 RMK A01 T00701005  RH  059%=      5-min Rain = 0
KDC1 140552Z 25001KT 07/M00 A3028 RMK A01 T00711004  RH  059%=      5-min Rain = 0
KDC1 140553Z 21001KT 07/M01 A3028 RMK A01 T00711006  RH  058%=      5-min Rain = 0
KDC1 140554Z 21001KT 07/M01 A3027 RMK A01 T00731008  RH  057%=      5-min Rain = 0
KDC1 140555Z 23001KT 07/M01 A3027 RMK A01 T00741009  RH  056%=      5-min Rain = 0
KDC1 140556Z 24001KT 08/M01 A3027 RMK A01 T00751012  RH  054%=      5-min Rain = 0
KDC1 140557Z 24001KT 08/M01 A3027 RMK A01 T00761010  RH  054%=      5-min Rain = 0
KDC1 140558Z 26002KT 08/M01 A3027 RMK A01 T00771012  RH  053%=      5-min Rain = 0
KDC1 140559Z 28003KT 08/M01 A3027 RMK A01 T00791012  RH  053%=      5-min Rain = 0
KDC1 140600Z 29003KT 08/M01 A3027 RMK A01 T00781009  RH  054%=      5-min Rain = 0

Page generated in 0.0341 seconds.